<?xml version="1.0" encoding="UTF-8" standalone="no" ?>
<gpx xmlns="http://www.topografix.com/GPX/1/1" xmlns:xsi="http://www.w3.org/2001/XMLSchema-instance" xsi:schemaLocation="http://www.topografix.com/GPX/1/1 http://www.topografix.com/GPX/1/1/gpx.xsd" version="1.1" creator="VisuGPX - https://www.visugpx.com">
  <metadata>
    <name>Grande Tête de l\'Obiou</name>
    <desc><![CDATA[Montée à la Grande Tête de l\'Obiou depuis le chalet des Balmes, avec les randonneurs de l\'ASVEL Ski Montagne (69)]]></desc>
  </metadata>
  <trk>
    <name><![CDATA[Grande Tête de l'Obiou]]></name>
    <trkseg>
      <trkpt lat="44.78442" lon="5.87524">
        <ele>1549.484</ele>
        <time>2014-07-18T06:19:20Z</time>
      </trkpt>
      <trkpt lat="44.78442" lon="5.87527">
        <ele>1573.914</ele>
        <time>2014-07-18T06:21:21Z</time>
      </trkpt>
      <trkpt lat="44.78442" lon="5.87531">
        <ele>1574.444</ele>
        <time>2014-07-18T06:21:57Z</time>
      </trkpt>
      <trkpt lat="44.78436" lon="5.87535">
        <ele>1574.469</ele>
        <time>2014-07-18T06:22:12Z</time>
      </trkpt>
      <trkpt lat="44.7842" lon="5.87537">
        <ele>1574.834</ele>
        <time>2014-07-18T06:22:56Z</time>
      </trkpt>
      <trkpt lat="44.78399" lon="5.87539">
        <ele>1574.59</ele>
        <time>2014-07-18T06:23:14Z</time>
      </trkpt>
      <trkpt lat="44.78379" lon="5.87544">
        <ele>1576.498</ele>
        <time>2014-07-18T06:23:34Z</time>
      </trkpt>
      <trkpt lat="44.78362" lon="5.87548">
        <ele>1578.499</ele>
        <time>2014-07-18T06:23:54Z</time>
      </trkpt>
      <trkpt lat="44.78343" lon="5.87549">
        <ele>1580.844</ele>
        <time>2014-07-18T06:24:15Z</time>
      </trkpt>
      <trkpt lat="44.78331" lon="5.87553">
        <ele>1583.021</ele>
        <time>2014-07-18T06:24:29Z</time>
      </trkpt>
      <trkpt lat="44.78318" lon="5.87559">
        <ele>1584.345</ele>
        <time>2014-07-18T06:24:45Z</time>
      </trkpt>
      <trkpt lat="44.78308" lon="5.87563">
        <ele>1586.407</ele>
        <time>2014-07-18T06:24:58Z</time>
      </trkpt>
      <trkpt lat="44.78296" lon="5.87561">
        <ele>1588.103</ele>
        <time>2014-07-18T06:25:11Z</time>
      </trkpt>
      <trkpt lat="44.78292" lon="5.87558">
        <ele>1590.783</ele>
        <time>2014-07-18T06:25:21Z</time>
      </trkpt>
      <trkpt lat="44.78289" lon="5.8756">
        <ele>1593.398</ele>
        <time>2014-07-18T06:25:31Z</time>
      </trkpt>
      <trkpt lat="44.78281" lon="5.87554">
        <ele>1596.524</ele>
        <time>2014-07-18T06:25:47Z</time>
      </trkpt>
      <trkpt lat="44.78281" lon="5.87546">
        <ele>1599.28</ele>
        <time>2014-07-18T06:26:02Z</time>
      </trkpt>
      <trkpt lat="44.78282" lon="5.87537">
        <ele>1602.185</ele>
        <time>2014-07-18T06:26:15Z</time>
      </trkpt>
      <trkpt lat="44.78277" lon="5.87533">
        <ele>1604.666</ele>
        <time>2014-07-18T06:26:29Z</time>
      </trkpt>
      <trkpt lat="44.78272" lon="5.87529">
        <ele>1607.722</ele>
        <time>2014-07-18T06:26:42Z</time>
      </trkpt>
      <trkpt lat="44.78271" lon="5.87523">
        <ele>1610.43</ele>
        <time>2014-07-18T06:26:56Z</time>
      </trkpt>
      <trkpt lat="44.78269" lon="5.87523">
        <ele>1611.873</ele>
        <time>2014-07-18T06:27:16Z</time>
      </trkpt>
      <trkpt lat="44.78259" lon="5.87521">
        <ele>1614.708</ele>
        <time>2014-07-18T06:28:27Z</time>
      </trkpt>
      <trkpt lat="44.78248" lon="5.87521">
        <ele>1617.823</ele>
        <time>2014-07-18T06:28:43Z</time>
      </trkpt>
      <trkpt lat="44.78238" lon="5.87519">
        <ele>1621.26</ele>
        <time>2014-07-18T06:29:01Z</time>
      </trkpt>
      <trkpt lat="44.78227" lon="5.87518">
        <ele>1624.31</ele>
        <time>2014-07-18T06:29:18Z</time>
      </trkpt>
      <trkpt lat="44.78215" lon="5.87518">
        <ele>1627.72</ele>
        <time>2014-07-18T06:29:36Z</time>
      </trkpt>
      <trkpt lat="44.78199" lon="5.87521">
        <ele>1631.222</ele>
        <time>2014-07-18T06:29:57Z</time>
      </trkpt>
      <trkpt lat="44.78186" lon="5.87524">
        <ele>1634.373</ele>
        <time>2014-07-18T06:30:15Z</time>
      </trkpt>
      <trkpt lat="44.78183" lon="5.87526">
        <ele>1635.57</ele>
        <time>2014-07-18T06:30:50Z</time>
      </trkpt>
      <trkpt lat="44.78174" lon="5.87523">
        <ele>1638.422</ele>
        <time>2014-07-18T06:31:48Z</time>
      </trkpt>
      <trkpt lat="44.78163" lon="5.8752">
        <ele>1641.865</ele>
        <time>2014-07-18T06:32:09Z</time>
      </trkpt>
      <trkpt lat="44.78155" lon="5.87515">
        <ele>1645.061</ele>
        <time>2014-07-18T06:32:27Z</time>
      </trkpt>
      <trkpt lat="44.78149" lon="5.87516">
        <ele>1648.129</ele>
        <time>2014-07-18T06:32:43Z</time>
      </trkpt>
      <trkpt lat="44.78141" lon="5.87514">
        <ele>1651.348</ele>
        <time>2014-07-18T06:32:58Z</time>
      </trkpt>
      <trkpt lat="44.78132" lon="5.87509">
        <ele>1654.65</ele>
        <time>2014-07-18T06:33:18Z</time>
      </trkpt>
      <trkpt lat="44.78123" lon="5.87509">
        <ele>1657.764</ele>
        <time>2014-07-18T06:33:37Z</time>
      </trkpt>
      <trkpt lat="44.78113" lon="5.87511">
        <ele>1660.793</ele>
        <time>2014-07-18T06:33:55Z</time>
      </trkpt>
      <trkpt lat="44.78102" lon="5.87509">
        <ele>1663.73</ele>
        <time>2014-07-18T06:34:18Z</time>
      </trkpt>
      <trkpt lat="44.78093" lon="5.87501">
        <ele>1667.318</ele>
        <time>2014-07-18T06:34:37Z</time>
      </trkpt>
      <trkpt lat="44.78081" lon="5.87505">
        <ele>1670.586</ele>
        <time>2014-07-18T06:34:56Z</time>
      </trkpt>
      <trkpt lat="44.78064" lon="5.87504">
        <ele>1674.238</ele>
        <time>2014-07-18T06:35:19Z</time>
      </trkpt>
      <trkpt lat="44.78051" lon="5.875">
        <ele>1677.018</ele>
        <time>2014-07-18T06:35:41Z</time>
      </trkpt>
      <trkpt lat="44.78048" lon="5.87481">
        <ele>1678.357</ele>
        <time>2014-07-18T06:35:59Z</time>
      </trkpt>
      <trkpt lat="44.78047" lon="5.87474">
        <ele>1678.096</ele>
        <time>2014-07-18T06:36:13Z</time>
      </trkpt>
      <trkpt lat="44.78043" lon="5.87469">
        <ele>1679.437</ele>
        <time>2014-07-18T06:36:20Z</time>
      </trkpt>
      <trkpt lat="44.7804" lon="5.87451">
        <ele>1680.532</ele>
        <time>2014-07-18T06:36:34Z</time>
      </trkpt>
      <trkpt lat="44.78033" lon="5.87438">
        <ele>1681.801</ele>
        <time>2014-07-18T06:36:48Z</time>
      </trkpt>
      <trkpt lat="44.78028" lon="5.87432">
        <ele>1682.595</ele>
        <time>2014-07-18T06:36:55Z</time>
      </trkpt>
      <trkpt lat="44.78026" lon="5.87427">
        <ele>1682.983</ele>
        <time>2014-07-18T06:37:00Z</time>
      </trkpt>
      <trkpt lat="44.78019" lon="5.87417">
        <ele>1684.848</ele>
        <time>2014-07-18T06:37:13Z</time>
      </trkpt>
      <trkpt lat="44.78017" lon="5.87407">
        <ele>1685.754</ele>
        <time>2014-07-18T06:37:20Z</time>
      </trkpt>
      <trkpt lat="44.78007" lon="5.87397">
        <ele>1687.152</ele>
        <time>2014-07-18T06:37:35Z</time>
      </trkpt>
      <trkpt lat="44.77996" lon="5.87385">
        <ele>1689.596</ele>
        <time>2014-07-18T06:37:54Z</time>
      </trkpt>
      <trkpt lat="44.77995" lon="5.87383">
        <ele>1689.988</ele>
        <time>2014-07-18T06:37:57Z</time>
      </trkpt>
      <trkpt lat="44.77983" lon="5.87366">
        <ele>1692.452</ele>
        <time>2014-07-18T06:38:16Z</time>
      </trkpt>
      <trkpt lat="44.7798" lon="5.87354">
        <ele>1693.534</ele>
        <time>2014-07-18T06:38:29Z</time>
      </trkpt>
      <trkpt lat="44.7797" lon="5.87342">
        <ele>1696.014</ele>
        <time>2014-07-18T06:38:45Z</time>
      </trkpt>
      <trkpt lat="44.77969" lon="5.87339">
        <ele>1696.062</ele>
        <time>2014-07-18T06:38:47Z</time>
      </trkpt>
      <trkpt lat="44.77967" lon="5.87333">
        <ele>1696.348</ele>
        <time>2014-07-18T06:39:02Z</time>
      </trkpt>
      <trkpt lat="44.77965" lon="5.8733">
        <ele>1697.026</ele>
        <time>2014-07-18T06:39:05Z</time>
      </trkpt>
      <trkpt lat="44.77962" lon="5.87325">
        <ele>1697.589</ele>
        <time>2014-07-18T06:39:09Z</time>
      </trkpt>
      <trkpt lat="44.77948" lon="5.8731">
        <ele>1700.955</ele>
        <time>2014-07-18T06:39:27Z</time>
      </trkpt>
      <trkpt lat="44.77939" lon="5.87297">
        <ele>1702.176</ele>
        <time>2014-07-18T06:39:40Z</time>
      </trkpt>
      <trkpt lat="44.77937" lon="5.87293">
        <ele>1702.812</ele>
        <time>2014-07-18T06:39:43Z</time>
      </trkpt>
      <trkpt lat="44.77928" lon="5.8727">
        <ele>1704.602</ele>
        <time>2014-07-18T06:40:02Z</time>
      </trkpt>
      <trkpt lat="44.77919" lon="5.87241">
        <ele>1706.835</ele>
        <time>2014-07-18T06:40:25Z</time>
      </trkpt>
      <trkpt lat="44.77917" lon="5.87233">
        <ele>1706.855</ele>
        <time>2014-07-18T06:40:45Z</time>
      </trkpt>
      <trkpt lat="44.77913" lon="5.8722">
        <ele>1708.893</ele>
        <time>2014-07-18T06:40:59Z</time>
      </trkpt>
      <trkpt lat="44.77907" lon="5.87211">
        <ele>1709.502</ele>
        <time>2014-07-18T06:41:08Z</time>
      </trkpt>
      <trkpt lat="44.77892" lon="5.87183">
        <ele>1712.758</ele>
        <time>2014-07-18T06:41:32Z</time>
      </trkpt>
      <trkpt lat="44.77879" lon="5.87159">
        <ele>1715.614</ele>
        <time>2014-07-18T06:41:55Z</time>
      </trkpt>
      <trkpt lat="44.77868" lon="5.87152">
        <ele>1717.879</ele>
        <time>2014-07-18T06:42:12Z</time>
      </trkpt>
      <trkpt lat="44.77866" lon="5.8715">
        <ele>1718.774</ele>
        <time>2014-07-18T06:42:35Z</time>
      </trkpt>
      <trkpt lat="44.77861" lon="5.8712">
        <ele>1720.416</ele>
        <time>2014-07-18T06:42:57Z</time>
      </trkpt>
      <trkpt lat="44.77856" lon="5.871">
        <ele>1722.359</ele>
        <time>2014-07-18T06:43:13Z</time>
      </trkpt>
      <trkpt lat="44.77853" lon="5.87085">
        <ele>1724.082</ele>
        <time>2014-07-18T06:43:29Z</time>
      </trkpt>
      <trkpt lat="44.77848" lon="5.87074">
        <ele>1725.837</ele>
        <time>2014-07-18T06:44:04Z</time>
      </trkpt>
      <trkpt lat="44.77845" lon="5.87059">
        <ele>1727.499</ele>
        <time>2014-07-18T06:44:16Z</time>
      </trkpt>
      <trkpt lat="44.77836" lon="5.87037">
        <ele>1730.636</ele>
        <time>2014-07-18T06:44:35Z</time>
      </trkpt>
      <trkpt lat="44.77829" lon="5.87014">
        <ele>1733.722</ele>
        <time>2014-07-18T06:44:57Z</time>
      </trkpt>
      <trkpt lat="44.77825" lon="5.86992">
        <ele>1736.169</ele>
        <time>2014-07-18T06:45:19Z</time>
      </trkpt>
      <trkpt lat="44.77824" lon="5.86986">
        <ele>1737.202</ele>
        <time>2014-07-18T06:46:11Z</time>
      </trkpt>
      <trkpt lat="44.77818" lon="5.86961">
        <ele>1739.796</ele>
        <time>2014-07-18T06:46:29Z</time>
      </trkpt>
      <trkpt lat="44.77812" lon="5.86945">
        <ele>1743.15</ele>
        <time>2014-07-18T06:46:42Z</time>
      </trkpt>
      <trkpt lat="44.77805" lon="5.86928">
        <ele>1746.656</ele>
        <time>2014-07-18T06:46:58Z</time>
      </trkpt>
      <trkpt lat="44.778" lon="5.86908">
        <ele>1749.298</ele>
        <time>2014-07-18T06:47:14Z</time>
      </trkpt>
      <trkpt lat="44.77796" lon="5.86885">
        <ele>1752.51</ele>
        <time>2014-07-18T06:47:31Z</time>
      </trkpt>
      <trkpt lat="44.7779" lon="5.86866">
        <ele>1755.739</ele>
        <time>2014-07-18T06:47:49Z</time>
      </trkpt>
      <trkpt lat="44.77787" lon="5.86848">
        <ele>1757.287</ele>
        <time>2014-07-18T06:48:02Z</time>
      </trkpt>
      <trkpt lat="44.77782" lon="5.86825">
        <ele>1759.798</ele>
        <time>2014-07-18T06:48:21Z</time>
      </trkpt>
      <trkpt lat="44.77778" lon="5.86796">
        <ele>1761.809</ele>
        <time>2014-07-18T06:48:41Z</time>
      </trkpt>
      <trkpt lat="44.77773" lon="5.86779">
        <ele>1764.364</ele>
        <time>2014-07-18T06:48:56Z</time>
      </trkpt>
      <trkpt lat="44.77773" lon="5.86759">
        <ele>1766.184</ele>
        <time>2014-07-18T06:49:12Z</time>
      </trkpt>
      <trkpt lat="44.77769" lon="5.86746">
        <ele>1768.112</ele>
        <time>2014-07-18T06:49:32Z</time>
      </trkpt>
      <trkpt lat="44.77762" lon="5.8673">
        <ele>1769.744</ele>
        <time>2014-07-18T06:49:47Z</time>
      </trkpt>
      <trkpt lat="44.77759" lon="5.86721">
        <ele>1771.158</ele>
        <time>2014-07-18T06:49:55Z</time>
      </trkpt>
      <trkpt lat="44.77757" lon="5.86716">
        <ele>1771.762</ele>
        <time>2014-07-18T06:49:59Z</time>
      </trkpt>
      <trkpt lat="44.77748" lon="5.86693">
        <ele>1774.134</ele>
        <time>2014-07-18T06:50:18Z</time>
      </trkpt>
      <trkpt lat="44.77743" lon="5.86669">
        <ele>1777.137</ele>
        <time>2014-07-18T06:50:34Z</time>
      </trkpt>
      <trkpt lat="44.7774" lon="5.86638">
        <ele>1779.163</ele>
        <time>2014-07-18T06:50:54Z</time>
      </trkpt>
      <trkpt lat="44.77739" lon="5.86633">
        <ele>1779.421</ele>
        <time>2014-07-18T06:50:57Z</time>
      </trkpt>
      <trkpt lat="44.7774" lon="5.86626">
        <ele>1779.476</ele>
        <time>2014-07-18T06:51:02Z</time>
      </trkpt>
      <trkpt lat="44.77741" lon="5.86615">
        <ele>1780.128</ele>
        <time>2014-07-18T06:51:09Z</time>
      </trkpt>
      <trkpt lat="44.77742" lon="5.86588">
        <ele>1782.13</ele>
        <time>2014-07-18T06:51:26Z</time>
      </trkpt>
      <trkpt lat="44.77742" lon="5.8658">
        <ele>1782.352</ele>
        <time>2014-07-18T06:51:32Z</time>
      </trkpt>
      <trkpt lat="44.77744" lon="5.86564">
        <ele>1783.419</ele>
        <time>2014-07-18T06:51:43Z</time>
      </trkpt>
      <trkpt lat="44.77745" lon="5.86554">
        <ele>1783.334</ele>
        <time>2014-07-18T06:51:51Z</time>
      </trkpt>
      <trkpt lat="44.77746" lon="5.86552">
        <ele>1784.086</ele>
        <time>2014-07-18T06:52:04Z</time>
      </trkpt>
      <trkpt lat="44.77746" lon="5.86542">
        <ele>1784.782</ele>
        <time>2014-07-18T06:52:13Z</time>
      </trkpt>
      <trkpt lat="44.77745" lon="5.86534">
        <ele>1784.979</ele>
        <time>2014-07-18T06:52:18Z</time>
      </trkpt>
      <trkpt lat="44.77741" lon="5.86515">
        <ele>1788.451</ele>
        <time>2014-07-18T06:52:34Z</time>
      </trkpt>
      <trkpt lat="44.77738" lon="5.865">
        <ele>1789.916</ele>
        <time>2014-07-18T06:52:47Z</time>
      </trkpt>
      <trkpt lat="44.77733" lon="5.86483">
        <ele>1793.018</ele>
        <time>2014-07-18T06:53:02Z</time>
      </trkpt>
      <trkpt lat="44.77726" lon="5.86455">
        <ele>1795.878</ele>
        <time>2014-07-18T06:53:27Z</time>
      </trkpt>
      <trkpt lat="44.77721" lon="5.86433">
        <ele>1798.96</ele>
        <time>2014-07-18T06:53:46Z</time>
      </trkpt>
      <trkpt lat="44.77717" lon="5.86416">
        <ele>1802.077</ele>
        <time>2014-07-18T06:54:04Z</time>
      </trkpt>
      <trkpt lat="44.77711" lon="5.86396">
        <ele>1804.862</ele>
        <time>2014-07-18T06:54:23Z</time>
      </trkpt>
      <trkpt lat="44.77709" lon="5.86377">
        <ele>1808.039</ele>
        <time>2014-07-18T06:54:43Z</time>
      </trkpt>
      <trkpt lat="44.77703" lon="5.86352">
        <ele>1810.545</ele>
        <time>2014-07-18T06:55:06Z</time>
      </trkpt>
      <trkpt lat="44.777" lon="5.8633">
        <ele>1813.625</ele>
        <time>2014-07-18T06:55:28Z</time>
      </trkpt>
      <trkpt lat="44.77698" lon="5.86308">
        <ele>1815.901</ele>
        <time>2014-07-18T06:55:49Z</time>
      </trkpt>
      <trkpt lat="44.77697" lon="5.8629">
        <ele>1818.063</ele>
        <time>2014-07-18T06:56:07Z</time>
      </trkpt>
      <trkpt lat="44.77694" lon="5.86269">
        <ele>1821.097</ele>
        <time>2014-07-18T06:56:28Z</time>
      </trkpt>
      <trkpt lat="44.77696" lon="5.86261">
        <ele>1822.155</ele>
        <time>2014-07-18T06:56:42Z</time>
      </trkpt>
      <trkpt lat="44.77693" lon="5.86245">
        <ele>1825.207</ele>
        <time>2014-07-18T06:57:02Z</time>
      </trkpt>
      <trkpt lat="44.7769" lon="5.86229">
        <ele>1828.507</ele>
        <time>2014-07-18T06:57:19Z</time>
      </trkpt>
      <trkpt lat="44.77689" lon="5.86213">
        <ele>1831.669</ele>
        <time>2014-07-18T06:57:39Z</time>
      </trkpt>
      <trkpt lat="44.7769" lon="5.862">
        <ele>1835.179</ele>
        <time>2014-07-18T06:57:55Z</time>
      </trkpt>
      <trkpt lat="44.77689" lon="5.86184">
        <ele>1838.574</ele>
        <time>2014-07-18T06:58:14Z</time>
      </trkpt>
      <trkpt lat="44.77689" lon="5.86167">
        <ele>1841.811</ele>
        <time>2014-07-18T06:58:33Z</time>
      </trkpt>
      <trkpt lat="44.77688" lon="5.86154">
        <ele>1845.114</ele>
        <time>2014-07-18T06:58:49Z</time>
      </trkpt>
      <trkpt lat="44.77687" lon="5.86143">
        <ele>1847.901</ele>
        <time>2014-07-18T06:59:05Z</time>
      </trkpt>
      <trkpt lat="44.77684" lon="5.86133">
        <ele>1850.668</ele>
        <time>2014-07-18T06:59:22Z</time>
      </trkpt>
      <trkpt lat="44.77683" lon="5.86119">
        <ele>1853.807</ele>
        <time>2014-07-18T06:59:40Z</time>
      </trkpt>
      <trkpt lat="44.77684" lon="5.86109">
        <ele>1856.854</ele>
        <time>2014-07-18T06:59:52Z</time>
      </trkpt>
      <trkpt lat="44.77684" lon="5.86099">
        <ele>1858.507</ele>
        <time>2014-07-18T07:00:06Z</time>
      </trkpt>
      <trkpt lat="44.77683" lon="5.86085">
        <ele>1860.956</ele>
        <time>2014-07-18T07:00:20Z</time>
      </trkpt>
      <trkpt lat="44.77685" lon="5.86073">
        <ele>1863.37</ele>
        <time>2014-07-18T07:00:32Z</time>
      </trkpt>
      <trkpt lat="44.77684" lon="5.86065">
        <ele>1866.364</ele>
        <time>2014-07-18T07:00:45Z</time>
      </trkpt>
      <trkpt lat="44.77686" lon="5.86045">
        <ele>1870.21</ele>
        <time>2014-07-18T07:01:08Z</time>
      </trkpt>
      <trkpt lat="44.77689" lon="5.86034">
        <ele>1873.641</ele>
        <time>2014-07-18T07:01:26Z</time>
      </trkpt>
      <trkpt lat="44.77693" lon="5.86022">
        <ele>1876.876</ele>
        <time>2014-07-18T07:01:42Z</time>
      </trkpt>
      <trkpt lat="44.77699" lon="5.86016">
        <ele>1879.301</ele>
        <time>2014-07-18T07:01:55Z</time>
      </trkpt>
      <trkpt lat="44.77697" lon="5.86007">
        <ele>1881.482</ele>
        <time>2014-07-18T07:02:07Z</time>
      </trkpt>
      <trkpt lat="44.777" lon="5.85995">
        <ele>1884.915</ele>
        <time>2014-07-18T07:02:24Z</time>
      </trkpt>
      <trkpt lat="44.77702" lon="5.85988">
        <ele>1887.852</ele>
        <time>2014-07-18T07:02:38Z</time>
      </trkpt>
      <trkpt lat="44.77708" lon="5.85983">
        <ele>1891.055</ele>
        <time>2014-07-18T07:02:54Z</time>
      </trkpt>
      <trkpt lat="44.77716" lon="5.85982">
        <ele>1893.036</ele>
        <time>2014-07-18T07:03:04Z</time>
      </trkpt>
      <trkpt lat="44.77724" lon="5.85979">
        <ele>1895.416</ele>
        <time>2014-07-18T07:03:19Z</time>
      </trkpt>
      <trkpt lat="44.77734" lon="5.85973">
        <ele>1896.663</ele>
        <time>2014-07-18T07:04:59Z</time>
      </trkpt>
      <trkpt lat="44.77738" lon="5.85971">
        <ele>1898.43</ele>
        <time>2014-07-18T07:05:14Z</time>
      </trkpt>
      <trkpt lat="44.77737" lon="5.85964">
        <ele>1898.442</ele>
        <time>2014-07-18T07:05:41Z</time>
      </trkpt>
      <trkpt lat="44.77738" lon="5.85959">
        <ele>1898.672</ele>
        <time>2014-07-18T07:05:45Z</time>
      </trkpt>
      <trkpt lat="44.77738" lon="5.85941">
        <ele>1897.424</ele>
        <time>2014-07-18T07:06:02Z</time>
      </trkpt>
      <trkpt lat="44.77742" lon="5.85938">
        <ele>1895.049</ele>
        <time>2014-07-18T07:06:18Z</time>
      </trkpt>
      <trkpt lat="44.77743" lon="5.85932">
        <ele>1893.862</ele>
        <time>2014-07-18T07:06:39Z</time>
      </trkpt>
      <trkpt lat="44.77749" lon="5.85927">
        <ele>1891.31</ele>
        <time>2014-07-18T07:06:48Z</time>
      </trkpt>
      <trkpt lat="44.77756" lon="5.8592">
        <ele>1889.777</ele>
        <time>2014-07-18T07:06:56Z</time>
      </trkpt>
      <trkpt lat="44.77757" lon="5.85911">
        <ele>1889.721</ele>
        <time>2014-07-18T07:07:02Z</time>
      </trkpt>
      <trkpt lat="44.7776" lon="5.85909">
        <ele>1889.034</ele>
        <time>2014-07-18T07:07:06Z</time>
      </trkpt>
      <trkpt lat="44.77764" lon="5.85905">
        <ele>1888.738</ele>
        <time>2014-07-18T07:07:11Z</time>
      </trkpt>
      <trkpt lat="44.77766" lon="5.85899">
        <ele>1888.029</ele>
        <time>2014-07-18T07:07:15Z</time>
      </trkpt>
      <trkpt lat="44.77772" lon="5.85892">
        <ele>1886.946</ele>
        <time>2014-07-18T07:07:27Z</time>
      </trkpt>
      <trkpt lat="44.77784" lon="5.85871">
        <ele>1888.672</ele>
        <time>2014-07-18T07:07:46Z</time>
      </trkpt>
      <trkpt lat="44.77788" lon="5.8586">
        <ele>1889.976</ele>
        <time>2014-07-18T07:07:56Z</time>
      </trkpt>
      <trkpt lat="44.77784" lon="5.85835">
        <ele>1892.104</ele>
        <time>2014-07-18T07:08:14Z</time>
      </trkpt>
      <trkpt lat="44.7778" lon="5.8583">
        <ele>1892.796</ele>
        <time>2014-07-18T07:08:20Z</time>
      </trkpt>
      <trkpt lat="44.77779" lon="5.85816">
        <ele>1893.854</ele>
        <time>2014-07-18T07:08:29Z</time>
      </trkpt>
      <trkpt lat="44.7778" lon="5.85806">
        <ele>1894.428</ele>
        <time>2014-07-18T07:08:36Z</time>
      </trkpt>
      <trkpt lat="44.77779" lon="5.85798">
        <ele>1895.216</ele>
        <time>2014-07-18T07:08:41Z</time>
      </trkpt>
      <trkpt lat="44.77779" lon="5.85791">
        <ele>1895.519</ele>
        <time>2014-07-18T07:08:45Z</time>
      </trkpt>
      <trkpt lat="44.77778" lon="5.85781">
        <ele>1896.771</ele>
        <time>2014-07-18T07:08:54Z</time>
      </trkpt>
      <trkpt lat="44.77778" lon="5.85759">
        <ele>1899.965</ele>
        <time>2014-07-18T07:09:13Z</time>
      </trkpt>
      <trkpt lat="44.7778" lon="5.85748">
        <ele>1901.152</ele>
        <time>2014-07-18T07:09:22Z</time>
      </trkpt>
      <trkpt lat="44.77785" lon="5.8573">
        <ele>1902.032</ele>
        <time>2014-07-18T07:09:36Z</time>
      </trkpt>
      <trkpt lat="44.77798" lon="5.85715">
        <ele>1905.35</ele>
        <time>2014-07-18T07:09:55Z</time>
      </trkpt>
      <trkpt lat="44.77801" lon="5.85709">
        <ele>1906.584</ele>
        <time>2014-07-18T07:10:01Z</time>
      </trkpt>
      <trkpt lat="44.77804" lon="5.85701">
        <ele>1907.28</ele>
        <time>2014-07-18T07:10:08Z</time>
      </trkpt>
      <trkpt lat="44.77809" lon="5.85692">
        <ele>1908.52</ele>
        <time>2014-07-18T07:10:17Z</time>
      </trkpt>
      <trkpt lat="44.77821" lon="5.85668">
        <ele>1911.486</ele>
        <time>2014-07-18T07:10:40Z</time>
      </trkpt>
      <trkpt lat="44.77822" lon="5.8566">
        <ele>1912.51</ele>
        <time>2014-07-18T07:10:46Z</time>
      </trkpt>
      <trkpt lat="44.7783" lon="5.85649">
        <ele>1914.25</ele>
        <time>2014-07-18T07:11:15Z</time>
      </trkpt>
      <trkpt lat="44.77844" lon="5.85634">
        <ele>1915.896</ele>
        <time>2014-07-18T07:12:08Z</time>
      </trkpt>
      <trkpt lat="44.77851" lon="5.8563">
        <ele>1916.759</ele>
        <time>2014-07-18T07:12:21Z</time>
      </trkpt>
      <trkpt lat="44.77853" lon="5.8563">
        <ele>1916.919</ele>
        <time>2014-07-18T07:12:24Z</time>
      </trkpt>
      <trkpt lat="44.77864" lon="5.8563">
        <ele>1918.539</ele>
        <time>2014-07-18T07:12:37Z</time>
      </trkpt>
      <trkpt lat="44.77881" lon="5.8563">
        <ele>1920.634</ele>
        <time>2014-07-18T07:12:53Z</time>
      </trkpt>
      <trkpt lat="44.77894" lon="5.85624">
        <ele>1922.685</ele>
        <time>2014-07-18T07:13:08Z</time>
      </trkpt>
      <trkpt lat="44.779" lon="5.85617">
        <ele>1923.619</ele>
        <time>2014-07-18T07:13:16Z</time>
      </trkpt>
      <trkpt lat="44.77903" lon="5.85615">
        <ele>1923.814</ele>
        <time>2014-07-18T07:13:19Z</time>
      </trkpt>
      <trkpt lat="44.7791" lon="5.85595">
        <ele>1926.169</ele>
        <time>2014-07-18T07:13:38Z</time>
      </trkpt>
      <trkpt lat="44.77912" lon="5.85579">
        <ele>1928.338</ele>
        <time>2014-07-18T07:13:52Z</time>
      </trkpt>
      <trkpt lat="44.77914" lon="5.85576">
        <ele>1929.135</ele>
        <time>2014-07-18T07:13:57Z</time>
      </trkpt>
      <trkpt lat="44.7792" lon="5.85561">
        <ele>1931.177</ele>
        <time>2014-07-18T07:14:12Z</time>
      </trkpt>
      <trkpt lat="44.77923" lon="5.85559">
        <ele>1931.675</ele>
        <time>2014-07-18T07:14:15Z</time>
      </trkpt>
      <trkpt lat="44.7793" lon="5.85546">
        <ele>1933.318</ele>
        <time>2014-07-18T07:14:28Z</time>
      </trkpt>
      <trkpt lat="44.7794" lon="5.85538">
        <ele>1935.971</ele>
        <time>2014-07-18T07:14:43Z</time>
      </trkpt>
      <trkpt lat="44.77954" lon="5.85534">
        <ele>1937.568</ele>
        <time>2014-07-18T07:14:58Z</time>
      </trkpt>
      <trkpt lat="44.77956" lon="5.85532">
        <ele>1938.15</ele>
        <time>2014-07-18T07:15:01Z</time>
      </trkpt>
      <trkpt lat="44.77971" lon="5.85525">
        <ele>1941.228</ele>
        <time>2014-07-18T07:15:19Z</time>
      </trkpt>
      <trkpt lat="44.77978" lon="5.8551">
        <ele>1941.849</ele>
        <time>2014-07-18T07:15:32Z</time>
      </trkpt>
      <trkpt lat="44.77976" lon="5.85503">
        <ele>1942.375</ele>
        <time>2014-07-18T07:15:36Z</time>
      </trkpt>
      <trkpt lat="44.77968" lon="5.85482">
        <ele>1945.42</ele>
        <time>2014-07-18T07:15:55Z</time>
      </trkpt>
      <trkpt lat="44.77962" lon="5.85459">
        <ele>1947.177</ele>
        <time>2014-07-18T07:16:13Z</time>
      </trkpt>
      <trkpt lat="44.77963" lon="5.85445">
        <ele>1948.437</ele>
        <time>2014-07-18T07:16:28Z</time>
      </trkpt>
      <trkpt lat="44.77964" lon="5.85443">
        <ele>1948.766</ele>
        <time>2014-07-18T07:16:31Z</time>
      </trkpt>
      <trkpt lat="44.77972" lon="5.85414">
        <ele>1950.45</ele>
        <time>2014-07-18T07:16:52Z</time>
      </trkpt>
      <trkpt lat="44.77978" lon="5.85389">
        <ele>1953.788</ele>
        <time>2014-07-18T07:17:14Z</time>
      </trkpt>
      <trkpt lat="44.77983" lon="5.85383">
        <ele>1954.758</ele>
        <time>2014-07-18T07:17:34Z</time>
      </trkpt>
      <trkpt lat="44.77993" lon="5.85365">
        <ele>1957.76</ele>
        <time>2014-07-18T07:17:51Z</time>
      </trkpt>
      <trkpt lat="44.77995" lon="5.8536">
        <ele>1958.782</ele>
        <time>2014-07-18T07:17:56Z</time>
      </trkpt>
      <trkpt lat="44.77999" lon="5.85359">
        <ele>1959.378</ele>
        <time>2014-07-18T07:17:59Z</time>
      </trkpt>
      <trkpt lat="44.78011" lon="5.85352">
        <ele>1961.779</ele>
        <time>2014-07-18T07:18:15Z</time>
      </trkpt>
      <trkpt lat="44.78024" lon="5.85344">
        <ele>1963.683</ele>
        <time>2014-07-18T07:18:31Z</time>
      </trkpt>
      <trkpt lat="44.78035" lon="5.85341">
        <ele>1964.429</ele>
        <time>2014-07-18T07:18:42Z</time>
      </trkpt>
      <trkpt lat="44.78039" lon="5.85339">
        <ele>1964.997</ele>
        <time>2014-07-18T07:18:48Z</time>
      </trkpt>
      <trkpt lat="44.78046" lon="5.85331">
        <ele>1965.783</ele>
        <time>2014-07-18T07:18:57Z</time>
      </trkpt>
      <trkpt lat="44.78051" lon="5.85327">
        <ele>1966.368</ele>
        <time>2014-07-18T07:19:01Z</time>
      </trkpt>
      <trkpt lat="44.78055" lon="5.85325">
        <ele>1965.894</ele>
        <time>2014-07-18T07:19:04Z</time>
      </trkpt>
      <trkpt lat="44.78061" lon="5.85322">
        <ele>1966.22</ele>
        <time>2014-07-18T07:19:09Z</time>
      </trkpt>
      <trkpt lat="44.78065" lon="5.85321">
        <ele>1966.029</ele>
        <time>2014-07-18T07:19:12Z</time>
      </trkpt>
      <trkpt lat="44.7808" lon="5.85312">
        <ele>1967.794</ele>
        <time>2014-07-18T07:19:27Z</time>
      </trkpt>
      <trkpt lat="44.78081" lon="5.8531">
        <ele>1967.679</ele>
        <time>2014-07-18T07:19:30Z</time>
      </trkpt>
      <trkpt lat="44.78089" lon="5.85301">
        <ele>1969.422</ele>
        <time>2014-07-18T07:19:41Z</time>
      </trkpt>
      <trkpt lat="44.78098" lon="5.85296">
        <ele>1970.582</ele>
        <time>2014-07-18T07:19:52Z</time>
      </trkpt>
      <trkpt lat="44.78103" lon="5.8529">
        <ele>1971.277</ele>
        <time>2014-07-18T07:19:59Z</time>
      </trkpt>
      <trkpt lat="44.78112" lon="5.8528">
        <ele>1973.362</ele>
        <time>2014-07-18T07:20:14Z</time>
      </trkpt>
      <trkpt lat="44.78126" lon="5.85269">
        <ele>1973.342</ele>
        <time>2014-07-18T07:20:27Z</time>
      </trkpt>
      <trkpt lat="44.78133" lon="5.85265">
        <ele>1974.972</ele>
        <time>2014-07-18T07:20:36Z</time>
      </trkpt>
      <trkpt lat="44.78134" lon="5.85262">
        <ele>1974.859</ele>
        <time>2014-07-18T07:20:38Z</time>
      </trkpt>
      <trkpt lat="44.78141" lon="5.85253">
        <ele>1974.838</ele>
        <time>2014-07-18T07:20:46Z</time>
      </trkpt>
      <trkpt lat="44.78145" lon="5.8525">
        <ele>1975.085</ele>
        <time>2014-07-18T07:20:50Z</time>
      </trkpt>
      <trkpt lat="44.78156" lon="5.8525">
        <ele>1976.641</ele>
        <time>2014-07-18T07:21:01Z</time>
      </trkpt>
      <trkpt lat="44.7816" lon="5.8525">
        <ele>1977.903</ele>
        <time>2014-07-18T07:21:04Z</time>
      </trkpt>
      <trkpt lat="44.78169" lon="5.85242">
        <ele>1980.289</ele>
        <time>2014-07-18T07:21:19Z</time>
      </trkpt>
      <trkpt lat="44.78174" lon="5.85226">
        <ele>1983.307</ele>
        <time>2014-07-18T07:21:35Z</time>
      </trkpt>
      <trkpt lat="44.7818" lon="5.85216">
        <ele>1986.673</ele>
        <time>2014-07-18T07:21:49Z</time>
      </trkpt>
      <trkpt lat="44.78186" lon="5.85201">
        <ele>1990.53</ele>
        <time>2014-07-18T07:22:08Z</time>
      </trkpt>
      <trkpt lat="44.78189" lon="5.8519">
        <ele>1991.893</ele>
        <time>2014-07-18T07:22:18Z</time>
      </trkpt>
      <trkpt lat="44.78195" lon="5.85177">
        <ele>1992.642</ele>
        <time>2014-07-18T07:22:37Z</time>
      </trkpt>
      <trkpt lat="44.782" lon="5.85174">
        <ele>1992.734</ele>
        <time>2014-07-18T07:22:53Z</time>
      </trkpt>
      <trkpt lat="44.78204" lon="5.85168">
        <ele>1992.988</ele>
        <time>2014-07-18T07:22:59Z</time>
      </trkpt>
      <trkpt lat="44.78215" lon="5.8517">
        <ele>1993.417</ele>
        <time>2014-07-18T07:23:07Z</time>
      </trkpt>
      <trkpt lat="44.78218" lon="5.85172">
        <ele>1993.72</ele>
        <time>2014-07-18T07:23:11Z</time>
      </trkpt>
      <trkpt lat="44.78221" lon="5.85168">
        <ele>1993.69</ele>
        <time>2014-07-18T07:23:15Z</time>
      </trkpt>
      <trkpt lat="44.78221" lon="5.85164">
        <ele>1993.808</ele>
        <time>2014-07-18T07:23:17Z</time>
      </trkpt>
      <trkpt lat="44.78225" lon="5.85132">
        <ele>1994.655</ele>
        <time>2014-07-18T07:23:39Z</time>
      </trkpt>
      <trkpt lat="44.78223" lon="5.85096">
        <ele>1995.087</ele>
        <time>2014-07-18T07:24:01Z</time>
      </trkpt>
      <trkpt lat="44.78218" lon="5.85068">
        <ele>1996.041</ele>
        <time>2014-07-18T07:24:20Z</time>
      </trkpt>
      <trkpt lat="44.7822" lon="5.85053">
        <ele>1996.955</ele>
        <time>2014-07-18T07:24:31Z</time>
      </trkpt>
      <trkpt lat="44.78215" lon="5.85035">
        <ele>1996.317</ele>
        <time>2014-07-18T07:24:44Z</time>
      </trkpt>
      <trkpt lat="44.78209" lon="5.85007">
        <ele>1997.974</ele>
        <time>2014-07-18T07:25:03Z</time>
      </trkpt>
      <trkpt lat="44.78206" lon="5.84991">
        <ele>1998.679</ele>
        <time>2014-07-18T07:25:16Z</time>
      </trkpt>
      <trkpt lat="44.782" lon="5.84982">
        <ele>1999.275</ele>
        <time>2014-07-18T07:25:23Z</time>
      </trkpt>
      <trkpt lat="44.78189" lon="5.8495">
        <ele>1999.659</ele>
        <time>2014-07-18T07:25:44Z</time>
      </trkpt>
      <trkpt lat="44.78178" lon="5.8492">
        <ele>2000.454</ele>
        <time>2014-07-18T07:26:05Z</time>
      </trkpt>
      <trkpt lat="44.78172" lon="5.84912">
        <ele>2000.923</ele>
        <time>2014-07-18T07:26:12Z</time>
      </trkpt>
      <trkpt lat="44.78159" lon="5.8488">
        <ele>2002.35</ele>
        <time>2014-07-18T07:26:35Z</time>
      </trkpt>
      <trkpt lat="44.78151" lon="5.84849">
        <ele>2004.802</ele>
        <time>2014-07-18T07:26:59Z</time>
      </trkpt>
      <trkpt lat="44.78152" lon="5.8484">
        <ele>2005.459</ele>
        <time>2014-07-18T07:27:05Z</time>
      </trkpt>
      <trkpt lat="44.78155" lon="5.84835">
        <ele>2005.351</ele>
        <time>2014-07-18T07:27:09Z</time>
      </trkpt>
      <trkpt lat="44.78157" lon="5.8483">
        <ele>2005.417</ele>
        <time>2014-07-18T07:27:13Z</time>
      </trkpt>
      <trkpt lat="44.78163" lon="5.84815">
        <ele>2006.258</ele>
        <time>2014-07-18T07:27:24Z</time>
      </trkpt>
      <trkpt lat="44.78161" lon="5.84797">
        <ele>2006.553</ele>
        <time>2014-07-18T07:27:38Z</time>
      </trkpt>
      <trkpt lat="44.78164" lon="5.84769">
        <ele>2008.142</ele>
        <time>2014-07-18T07:27:57Z</time>
      </trkpt>
      <trkpt lat="44.78166" lon="5.8476">
        <ele>2008.575</ele>
        <time>2014-07-18T07:28:03Z</time>
      </trkpt>
      <trkpt lat="44.78157" lon="5.84753">
        <ele>2009.502</ele>
        <time>2014-07-18T07:28:15Z</time>
      </trkpt>
      <trkpt lat="44.78151" lon="5.84748">
        <ele>2010.428</ele>
        <time>2014-07-18T07:28:29Z</time>
      </trkpt>
      <trkpt lat="44.7814" lon="5.84745">
        <ele>2012.213</ele>
        <time>2014-07-18T07:28:47Z</time>
      </trkpt>
      <trkpt lat="44.78129" lon="5.84743">
        <ele>2014.83</ele>
        <time>2014-07-18T07:29:05Z</time>
      </trkpt>
      <trkpt lat="44.78124" lon="5.84745">
        <ele>2018.677</ele>
        <time>2014-07-18T07:29:20Z</time>
      </trkpt>
      <trkpt lat="44.7812" lon="5.84745">
        <ele>2019.131</ele>
        <time>2014-07-18T07:29:25Z</time>
      </trkpt>
      <trkpt lat="44.78108" lon="5.84747">
        <ele>2022.242</ele>
        <time>2014-07-18T07:29:41Z</time>
      </trkpt>
      <trkpt lat="44.781" lon="5.84757">
        <ele>2024.73</ele>
        <time>2014-07-18T07:29:56Z</time>
      </trkpt>
      <trkpt lat="44.78099" lon="5.84763">
        <ele>2025.277</ele>
        <time>2014-07-18T07:30:07Z</time>
      </trkpt>
      <trkpt lat="44.78091" lon="5.8477">
        <ele>2027.094</ele>
        <time>2014-07-18T07:30:17Z</time>
      </trkpt>
      <trkpt lat="44.78082" lon="5.84766">
        <ele>2028.142</ele>
        <time>2014-07-18T07:30:26Z</time>
      </trkpt>
      <trkpt lat="44.7808" lon="5.84766">
        <ele>2028.639</ele>
        <time>2014-07-18T07:30:29Z</time>
      </trkpt>
      <trkpt lat="44.78068" lon="5.84757">
        <ele>2029.87</ele>
        <time>2014-07-18T07:30:47Z</time>
      </trkpt>
      <trkpt lat="44.78058" lon="5.84744">
        <ele>2032.84</ele>
        <time>2014-07-18T07:31:07Z</time>
      </trkpt>
      <trkpt lat="44.78053" lon="5.8474">
        <ele>2033.431</ele>
        <time>2014-07-18T07:31:28Z</time>
      </trkpt>
      <trkpt lat="44.78051" lon="5.84739">
        <ele>2035.166</ele>
        <time>2014-07-18T07:40:45Z</time>
      </trkpt>
      <trkpt lat="44.78048" lon="5.84736">
        <ele>2036.363</ele>
        <time>2014-07-18T07:40:49Z</time>
      </trkpt>
      <trkpt lat="44.78032" lon="5.84723">
        <ele>2036.324</ele>
        <time>2014-07-18T07:41:10Z</time>
      </trkpt>
      <trkpt lat="44.78023" lon="5.8471">
        <ele>2039.286</ele>
        <time>2014-07-18T07:41:28Z</time>
      </trkpt>
      <trkpt lat="44.78016" lon="5.84698">
        <ele>2042.711</ele>
        <time>2014-07-18T07:41:46Z</time>
      </trkpt>
      <trkpt lat="44.78012" lon="5.84688">
        <ele>2045.179</ele>
        <time>2014-07-18T07:42:00Z</time>
      </trkpt>
      <trkpt lat="44.78008" lon="5.84681">
        <ele>2048.341</ele>
        <time>2014-07-18T07:42:16Z</time>
      </trkpt>
      <trkpt lat="44.78005" lon="5.84674">
        <ele>2050.093</ele>
        <time>2014-07-18T07:42:27Z</time>
      </trkpt>
      <trkpt lat="44.78004" lon="5.84661">
        <ele>2052.642</ele>
        <time>2014-07-18T07:42:46Z</time>
      </trkpt>
      <trkpt lat="44.78003" lon="5.8465">
        <ele>2054.795</ele>
        <time>2014-07-18T07:42:59Z</time>
      </trkpt>
      <trkpt lat="44.78003" lon="5.84642">
        <ele>2056.179</ele>
        <time>2014-07-18T07:43:10Z</time>
      </trkpt>
      <trkpt lat="44.78001" lon="5.84633">
        <ele>2057.853</ele>
        <time>2014-07-18T07:43:22Z</time>
      </trkpt>
      <trkpt lat="44.77998" lon="5.84613">
        <ele>2061.167</ele>
        <time>2014-07-18T07:43:42Z</time>
      </trkpt>
      <trkpt lat="44.77996" lon="5.84611">
        <ele>2062.654</ele>
        <time>2014-07-18T07:43:59Z</time>
      </trkpt>
      <trkpt lat="44.7799" lon="5.84626">
        <ele>2065.461</ele>
        <time>2014-07-18T07:44:18Z</time>
      </trkpt>
      <trkpt lat="44.7798" lon="5.84636">
        <ele>2067.904</ele>
        <time>2014-07-18T07:44:37Z</time>
      </trkpt>
      <trkpt lat="44.7797" lon="5.84644">
        <ele>2070.385</ele>
        <time>2014-07-18T07:44:55Z</time>
      </trkpt>
      <trkpt lat="44.77961" lon="5.84648">
        <ele>2073.414</ele>
        <time>2014-07-18T07:45:12Z</time>
      </trkpt>
      <trkpt lat="44.77955" lon="5.84647">
        <ele>2075.393</ele>
        <time>2014-07-18T07:45:24Z</time>
      </trkpt>
      <trkpt lat="44.77949" lon="5.84651">
        <ele>2077.633</ele>
        <time>2014-07-18T07:45:39Z</time>
      </trkpt>
      <trkpt lat="44.77944" lon="5.84651">
        <ele>2079.937</ele>
        <time>2014-07-18T07:45:59Z</time>
      </trkpt>
      <trkpt lat="44.77939" lon="5.84653">
        <ele>2082.108</ele>
        <time>2014-07-18T07:46:13Z</time>
      </trkpt>
      <trkpt lat="44.77935" lon="5.84655">
        <ele>2084.344</ele>
        <time>2014-07-18T07:46:25Z</time>
      </trkpt>
      <trkpt lat="44.77929" lon="5.84664">
        <ele>2085.823</ele>
        <time>2014-07-18T07:46:38Z</time>
      </trkpt>
      <trkpt lat="44.77924" lon="5.84671">
        <ele>2087.653</ele>
        <time>2014-07-18T07:46:58Z</time>
      </trkpt>
      <trkpt lat="44.77918" lon="5.84684">
        <ele>2090.664</ele>
        <time>2014-07-18T07:47:17Z</time>
      </trkpt>
      <trkpt lat="44.77911" lon="5.84694">
        <ele>2093.881</ele>
        <time>2014-07-18T07:47:36Z</time>
      </trkpt>
      <trkpt lat="44.77906" lon="5.8471">
        <ele>2096.964</ele>
        <time>2014-07-18T07:47:57Z</time>
      </trkpt>
      <trkpt lat="44.779" lon="5.84716">
        <ele>2100.12</ele>
        <time>2014-07-18T07:48:15Z</time>
      </trkpt>
      <trkpt lat="44.77888" lon="5.84721">
        <ele>2103.688</ele>
        <time>2014-07-18T07:48:34Z</time>
      </trkpt>
      <trkpt lat="44.77881" lon="5.84726">
        <ele>2106.735</ele>
        <time>2014-07-18T07:48:55Z</time>
      </trkpt>
      <trkpt lat="44.7788" lon="5.84721">
        <ele>2108.354</ele>
        <time>2014-07-18T07:49:07Z</time>
      </trkpt>
      <trkpt lat="44.77873" lon="5.84714">
        <ele>2111.446</ele>
        <time>2014-07-18T07:49:25Z</time>
      </trkpt>
      <trkpt lat="44.77867" lon="5.84709">
        <ele>2114.785</ele>
        <time>2014-07-18T07:49:43Z</time>
      </trkpt>
      <trkpt lat="44.77862" lon="5.84709">
        <ele>2116.375</ele>
        <time>2014-07-18T07:50:03Z</time>
      </trkpt>
      <trkpt lat="44.77853" lon="5.84702">
        <ele>2118.387</ele>
        <time>2014-07-18T07:50:30Z</time>
      </trkpt>
      <trkpt lat="44.77844" lon="5.84696">
        <ele>2121.705</ele>
        <time>2014-07-18T07:50:48Z</time>
      </trkpt>
      <trkpt lat="44.77839" lon="5.8469">
        <ele>2125.324</ele>
        <time>2014-07-18T07:51:04Z</time>
      </trkpt>
      <trkpt lat="44.77834" lon="5.84682">
        <ele>2128.42</ele>
        <time>2014-07-18T07:51:20Z</time>
      </trkpt>
      <trkpt lat="44.77832" lon="5.84676">
        <ele>2131.777</ele>
        <time>2014-07-18T07:51:37Z</time>
      </trkpt>
      <trkpt lat="44.77833" lon="5.84667">
        <ele>2134.813</ele>
        <time>2014-07-18T07:51:55Z</time>
      </trkpt>
      <trkpt lat="44.77834" lon="5.84662">
        <ele>2137.473</ele>
        <time>2014-07-18T07:52:10Z</time>
      </trkpt>
      <trkpt lat="44.77832" lon="5.84656">
        <ele>2140.529</ele>
        <time>2014-07-18T07:52:25Z</time>
      </trkpt>
      <trkpt lat="44.77826" lon="5.84649">
        <ele>2143.56</ele>
        <time>2014-07-18T07:52:42Z</time>
      </trkpt>
      <trkpt lat="44.77822" lon="5.84641">
        <ele>2146.603</ele>
        <time>2014-07-18T07:52:57Z</time>
      </trkpt>
      <trkpt lat="44.77819" lon="5.84634">
        <ele>2149.934</ele>
        <time>2014-07-18T07:53:12Z</time>
      </trkpt>
      <trkpt lat="44.7782" lon="5.84632">
        <ele>2152.474</ele>
        <time>2014-07-18T07:53:30Z</time>
      </trkpt>
      <trkpt lat="44.7782" lon="5.84629">
        <ele>2155.14</ele>
        <time>2014-07-18T07:53:44Z</time>
      </trkpt>
      <trkpt lat="44.77818" lon="5.84623">
        <ele>2157.929</ele>
        <time>2014-07-18T07:54:35Z</time>
      </trkpt>
      <trkpt lat="44.7782" lon="5.84616">
        <ele>2161.212</ele>
        <time>2014-07-18T07:54:51Z</time>
      </trkpt>
      <trkpt lat="44.77823" lon="5.84609">
        <ele>2164.33</ele>
        <time>2014-07-18T07:55:07Z</time>
      </trkpt>
      <trkpt lat="44.77825" lon="5.84599">
        <ele>2167.439</ele>
        <time>2014-07-18T07:55:26Z</time>
      </trkpt>
      <trkpt lat="44.77825" lon="5.84593">
        <ele>2170.79</ele>
        <time>2014-07-18T07:55:42Z</time>
      </trkpt>
      <trkpt lat="44.77821" lon="5.84589">
        <ele>2173.069</ele>
        <time>2014-07-18T07:55:55Z</time>
      </trkpt>
      <trkpt lat="44.77817" lon="5.84585">
        <ele>2176.197</ele>
        <time>2014-07-18T07:56:10Z</time>
      </trkpt>
      <trkpt lat="44.77815" lon="5.84584">
        <ele>2177.327</ele>
        <time>2014-07-18T07:56:25Z</time>
      </trkpt>
      <trkpt lat="44.77814" lon="5.8458">
        <ele>2179.268</ele>
        <time>2014-07-18T07:56:48Z</time>
      </trkpt>
      <trkpt lat="44.77806" lon="5.84572">
        <ele>2184.573</ele>
        <time>2014-07-18T07:57:38Z</time>
      </trkpt>
      <trkpt lat="44.77804" lon="5.84567">
        <ele>2188.136</ele>
        <time>2014-07-18T07:57:56Z</time>
      </trkpt>
      <trkpt lat="44.77811" lon="5.84564">
        <ele>2191.088</ele>
        <time>2014-07-18T07:58:19Z</time>
      </trkpt>
      <trkpt lat="44.77814" lon="5.84553">
        <ele>2194.467</ele>
        <time>2014-07-18T07:58:36Z</time>
      </trkpt>
      <trkpt lat="44.7781" lon="5.84551">
        <ele>2197.529</ele>
        <time>2014-07-18T07:58:54Z</time>
      </trkpt>
      <trkpt lat="44.77807" lon="5.84549">
        <ele>2199.193</ele>
        <time>2014-07-18T07:59:16Z</time>
      </trkpt>
      <trkpt lat="44.77804" lon="5.84545">
        <ele>2201.579</ele>
        <time>2014-07-18T07:59:30Z</time>
      </trkpt>
      <trkpt lat="44.77801" lon="5.84544">
        <ele>2203.631</ele>
        <time>2014-07-18T07:59:48Z</time>
      </trkpt>
      <trkpt lat="44.77802" lon="5.84539">
        <ele>2205.861</ele>
        <time>2014-07-18T08:00:19Z</time>
      </trkpt>
      <trkpt lat="44.77807" lon="5.84539">
        <ele>2207.406</ele>
        <time>2014-07-18T08:00:47Z</time>
      </trkpt>
      <trkpt lat="44.77809" lon="5.84536">
        <ele>2210.151</ele>
        <time>2014-07-18T08:02:54Z</time>
      </trkpt>
      <trkpt lat="44.7781" lon="5.84533">
        <ele>2210.807</ele>
        <time>2014-07-18T08:03:34Z</time>
      </trkpt>
      <trkpt lat="44.77811" lon="5.84528">
        <ele>2211.833</ele>
        <time>2014-07-18T08:04:40Z</time>
      </trkpt>
      <trkpt lat="44.77811" lon="5.8452">
        <ele>2215.216</ele>
        <time>2014-07-18T08:04:55Z</time>
      </trkpt>
      <trkpt lat="44.77812" lon="5.84514">
        <ele>2218.344</ele>
        <time>2014-07-18T08:05:11Z</time>
      </trkpt>
      <trkpt lat="44.7781" lon="5.84511">
        <ele>2220.912</ele>
        <time>2014-07-18T08:05:26Z</time>
      </trkpt>
      <trkpt lat="44.77811" lon="5.84505">
        <ele>2222.405</ele>
        <time>2014-07-18T08:05:40Z</time>
      </trkpt>
      <trkpt lat="44.77812" lon="5.84497">
        <ele>2224.903</ele>
        <time>2014-07-18T08:05:58Z</time>
      </trkpt>
      <trkpt lat="44.7781" lon="5.84492">
        <ele>2226.881</ele>
        <time>2014-07-18T08:06:13Z</time>
      </trkpt>
      <trkpt lat="44.77804" lon="5.84492">
        <ele>2229.893</ele>
        <time>2014-07-18T08:06:31Z</time>
      </trkpt>
      <trkpt lat="44.778" lon="5.84492">
        <ele>2232.73</ele>
        <time>2014-07-18T08:06:47Z</time>
      </trkpt>
      <trkpt lat="44.77796" lon="5.84493">
        <ele>2235.292</ele>
        <time>2014-07-18T08:07:21Z</time>
      </trkpt>
      <trkpt lat="44.77793" lon="5.84488">
        <ele>2237.779</ele>
        <time>2014-07-18T08:07:51Z</time>
      </trkpt>
      <trkpt lat="44.77787" lon="5.84481">
        <ele>2241.051</ele>
        <time>2014-07-18T08:08:08Z</time>
      </trkpt>
      <trkpt lat="44.77785" lon="5.84475">
        <ele>2242.496</ele>
        <time>2014-07-18T08:08:23Z</time>
      </trkpt>
      <trkpt lat="44.77773" lon="5.84471">
        <ele>2244.761</ele>
        <time>2014-07-18T08:08:43Z</time>
      </trkpt>
      <trkpt lat="44.77766" lon="5.84464">
        <ele>2247.826</ele>
        <time>2014-07-18T08:08:59Z</time>
      </trkpt>
      <trkpt lat="44.77758" lon="5.8446">
        <ele>2251.023</ele>
        <time>2014-07-18T08:09:17Z</time>
      </trkpt>
      <trkpt lat="44.77753" lon="5.84458">
        <ele>2253.586</ele>
        <time>2014-07-18T08:09:34Z</time>
      </trkpt>
      <trkpt lat="44.77745" lon="5.84456">
        <ele>2256.918</ele>
        <time>2014-07-18T08:09:50Z</time>
      </trkpt>
      <trkpt lat="44.77742" lon="5.84459">
        <ele>2258.165</ele>
        <time>2014-07-18T08:10:05Z</time>
      </trkpt>
      <trkpt lat="44.77739" lon="5.84455">
        <ele>2259.044</ele>
        <time>2014-07-18T08:11:30Z</time>
      </trkpt>
      <trkpt lat="44.77734" lon="5.84449">
        <ele>2262.121</ele>
        <time>2014-07-18T08:11:43Z</time>
      </trkpt>
      <trkpt lat="44.77727" lon="5.84443">
        <ele>2264.875</ele>
        <time>2014-07-18T08:12:01Z</time>
      </trkpt>
      <trkpt lat="44.77718" lon="5.84435">
        <ele>2267.899</ele>
        <time>2014-07-18T08:12:18Z</time>
      </trkpt>
      <trkpt lat="44.77712" lon="5.84433">
        <ele>2270.641</ele>
        <time>2014-07-18T08:12:35Z</time>
      </trkpt>
      <trkpt lat="44.7771" lon="5.84433">
        <ele>2271.507</ele>
        <time>2014-07-18T08:13:14Z</time>
      </trkpt>
      <trkpt lat="44.77705" lon="5.84432">
        <ele>2274.239</ele>
        <time>2014-07-18T08:15:04Z</time>
      </trkpt>
      <trkpt lat="44.77699" lon="5.8443">
        <ele>2276.758</ele>
        <time>2014-07-18T08:15:22Z</time>
      </trkpt>
      <trkpt lat="44.77696" lon="5.84429">
        <ele>2278.462</ele>
        <time>2014-07-18T08:15:42Z</time>
      </trkpt>
      <trkpt lat="44.77692" lon="5.84432">
        <ele>2279.716</ele>
        <time>2014-07-18T08:16:05Z</time>
      </trkpt>
      <trkpt lat="44.77684" lon="5.84428">
        <ele>2282.16</ele>
        <time>2014-07-18T08:16:30Z</time>
      </trkpt>
      <trkpt lat="44.77679" lon="5.84427">
        <ele>2285.444</ele>
        <time>2014-07-18T08:16:46Z</time>
      </trkpt>
      <trkpt lat="44.77673" lon="5.84429">
        <ele>2287.643</ele>
        <time>2014-07-18T08:17:22Z</time>
      </trkpt>
      <trkpt lat="44.77664" lon="5.84432">
        <ele>2289.499</ele>
        <time>2014-07-18T08:17:37Z</time>
      </trkpt>
      <trkpt lat="44.77661" lon="5.84431">
        <ele>2290.562</ele>
        <time>2014-07-18T08:17:58Z</time>
      </trkpt>
      <trkpt lat="44.77656" lon="5.84434">
        <ele>2290.623</ele>
        <time>2014-07-18T08:18:20Z</time>
      </trkpt>
      <trkpt lat="44.77647" lon="5.84436">
        <ele>2292.92</ele>
        <time>2014-07-18T08:18:35Z</time>
      </trkpt>
      <trkpt lat="44.77636" lon="5.84438">
        <ele>2293.969</ele>
        <time>2014-07-18T08:18:53Z</time>
      </trkpt>
      <trkpt lat="44.77629" lon="5.84441">
        <ele>2295.376</ele>
        <time>2014-07-18T08:19:09Z</time>
      </trkpt>
      <trkpt lat="44.77628" lon="5.84433">
        <ele>2298.837</ele>
        <time>2014-07-18T08:19:29Z</time>
      </trkpt>
      <trkpt lat="44.77619" lon="5.84432">
        <ele>2300.657</ele>
        <time>2014-07-18T08:19:47Z</time>
      </trkpt>
      <trkpt lat="44.77613" lon="5.84432">
        <ele>2302.137</ele>
        <time>2014-07-18T08:20:00Z</time>
      </trkpt>
      <trkpt lat="44.7761" lon="5.84432">
        <ele>2303.177</ele>
        <time>2014-07-18T08:20:24Z</time>
      </trkpt>
      <trkpt lat="44.77607" lon="5.84426">
        <ele>2304.945</ele>
        <time>2014-07-18T08:20:41Z</time>
      </trkpt>
      <trkpt lat="44.77605" lon="5.84428">
        <ele>2304.991</ele>
        <time>2014-07-18T08:21:07Z</time>
      </trkpt>
      <trkpt lat="44.77598" lon="5.84432">
        <ele>2303.888</ele>
        <time>2014-07-18T08:21:32Z</time>
      </trkpt>
      <trkpt lat="44.77587" lon="5.84437">
        <ele>2303.291</ele>
        <time>2014-07-18T08:21:53Z</time>
      </trkpt>
      <trkpt lat="44.77586" lon="5.84441">
        <ele>2303.276</ele>
        <time>2014-07-18T08:22:02Z</time>
      </trkpt>
      <trkpt lat="44.77582" lon="5.84445">
        <ele>2304.535</ele>
        <time>2014-07-18T08:22:15Z</time>
      </trkpt>
      <trkpt lat="44.77579" lon="5.84445">
        <ele>2307.205</ele>
        <time>2014-07-18T08:22:46Z</time>
      </trkpt>
      <trkpt lat="44.77572" lon="5.84451">
        <ele>2307.26</ele>
        <time>2014-07-18T08:23:01Z</time>
      </trkpt>
      <trkpt lat="44.77571" lon="5.84448">
        <ele>2307.79</ele>
        <time>2014-07-18T08:23:21Z</time>
      </trkpt>
      <trkpt lat="44.77566" lon="5.84451">
        <ele>2311.038</ele>
        <time>2014-07-18T08:23:35Z</time>
      </trkpt>
      <trkpt lat="44.77564" lon="5.84453">
        <ele>2313.728</ele>
        <time>2014-07-18T08:23:50Z</time>
      </trkpt>
      <trkpt lat="44.77561" lon="5.84446">
        <ele>2315.401</ele>
        <time>2014-07-18T08:24:29Z</time>
      </trkpt>
      <trkpt lat="44.77551" lon="5.84442">
        <ele>2318.149</ele>
        <time>2014-07-18T08:24:53Z</time>
      </trkpt>
      <trkpt lat="44.77543" lon="5.84441">
        <ele>2320.483</ele>
        <time>2014-07-18T08:25:11Z</time>
      </trkpt>
      <trkpt lat="44.77539" lon="5.84438">
        <ele>2321.855</ele>
        <time>2014-07-18T08:25:30Z</time>
      </trkpt>
      <trkpt lat="44.7753" lon="5.84433">
        <ele>2323.58</ele>
        <time>2014-07-18T08:26:17Z</time>
      </trkpt>
      <trkpt lat="44.77521" lon="5.84434">
        <ele>2325.245</ele>
        <time>2014-07-18T08:26:32Z</time>
      </trkpt>
      <trkpt lat="44.7751" lon="5.84433">
        <ele>2327.726</ele>
        <time>2014-07-18T08:26:51Z</time>
      </trkpt>
      <trkpt lat="44.77505" lon="5.84426">
        <ele>2329.948</ele>
        <time>2014-07-18T08:27:58Z</time>
      </trkpt>
      <trkpt lat="44.77502" lon="5.84427">
        <ele>2334.012</ele>
        <time>2014-07-18T08:28:27Z</time>
      </trkpt>
      <trkpt lat="44.77496" lon="5.84427">
        <ele>2334.839</ele>
        <time>2014-07-18T08:28:49Z</time>
      </trkpt>
      <trkpt lat="44.77483" lon="5.84432">
        <ele>2336.031</ele>
        <time>2014-07-18T08:29:07Z</time>
      </trkpt>
      <trkpt lat="44.77477" lon="5.84428">
        <ele>2339.257</ele>
        <time>2014-07-18T08:29:23Z</time>
      </trkpt>
      <trkpt lat="44.77468" lon="5.84429">
        <ele>2342.214</ele>
        <time>2014-07-18T08:29:41Z</time>
      </trkpt>
      <trkpt lat="44.7746" lon="5.8443">
        <ele>2344.61</ele>
        <time>2014-07-18T08:29:58Z</time>
      </trkpt>
      <trkpt lat="44.77457" lon="5.84426">
        <ele>2344.276</ele>
        <time>2014-07-18T08:30:08Z</time>
      </trkpt>
      <trkpt lat="44.77452" lon="5.84429">
        <ele>2344.94</ele>
        <time>2014-07-18T08:30:28Z</time>
      </trkpt>
      <trkpt lat="44.77442" lon="5.84442">
        <ele>2348.217</ele>
        <time>2014-07-18T08:30:51Z</time>
      </trkpt>
      <trkpt lat="44.77439" lon="5.84446">
        <ele>2350.673</ele>
        <time>2014-07-18T08:31:09Z</time>
      </trkpt>
      <trkpt lat="44.77436" lon="5.84445">
        <ele>2353.048</ele>
        <time>2014-07-18T08:31:23Z</time>
      </trkpt>
      <trkpt lat="44.77432" lon="5.8445">
        <ele>2353.151</ele>
        <time>2014-07-18T08:31:50Z</time>
      </trkpt>
      <trkpt lat="44.77429" lon="5.84457">
        <ele>2353.366</ele>
        <time>2014-07-18T08:32:29Z</time>
      </trkpt>
      <trkpt lat="44.77423" lon="5.84468">
        <ele>2354.522</ele>
        <time>2014-07-18T08:32:48Z</time>
      </trkpt>
      <trkpt lat="44.77417" lon="5.84471">
        <ele>2359.29</ele>
        <time>2014-07-18T08:33:17Z</time>
      </trkpt>
      <trkpt lat="44.77413" lon="5.84477">
        <ele>2361.215</ele>
        <time>2014-07-18T08:33:34Z</time>
      </trkpt>
      <trkpt lat="44.77412" lon="5.84483">
        <ele>2363.07</ele>
        <time>2014-07-18T08:33:52Z</time>
      </trkpt>
      <trkpt lat="44.7741" lon="5.84487">
        <ele>2363.241</ele>
        <time>2014-07-18T08:34:29Z</time>
      </trkpt>
      <trkpt lat="44.77408" lon="5.84487">
        <ele>2365.004</ele>
        <time>2014-07-18T08:34:39Z</time>
      </trkpt>
      <trkpt lat="44.77405" lon="5.84499">
        <ele>2367.475</ele>
        <time>2014-07-18T08:34:56Z</time>
      </trkpt>
      <trkpt lat="44.774" lon="5.84499">
        <ele>2370.528</ele>
        <time>2014-07-18T08:35:08Z</time>
      </trkpt>
      <trkpt lat="44.77398" lon="5.84494">
        <ele>2373.613</ele>
        <time>2014-07-18T08:35:24Z</time>
      </trkpt>
      <trkpt lat="44.77395" lon="5.84489">
        <ele>2376.565</ele>
        <time>2014-07-18T08:36:21Z</time>
      </trkpt>
      <trkpt lat="44.77395" lon="5.84484">
        <ele>2379.045</ele>
        <time>2014-07-18T08:37:12Z</time>
      </trkpt>
      <trkpt lat="44.77396" lon="5.8448">
        <ele>2380.889</ele>
        <time>2014-07-18T08:37:30Z</time>
      </trkpt>
      <trkpt lat="44.77401" lon="5.84472">
        <ele>2383.726</ele>
        <time>2014-07-18T08:37:54Z</time>
      </trkpt>
      <trkpt lat="44.77392" lon="5.84477">
        <ele>2387.052</ele>
        <time>2014-07-18T08:38:09Z</time>
      </trkpt>
      <trkpt lat="44.77389" lon="5.84478">
        <ele>2387.939</ele>
        <time>2014-07-18T08:38:40Z</time>
      </trkpt>
      <trkpt lat="44.77384" lon="5.84471">
        <ele>2387.976</ele>
        <time>2014-07-18T08:38:57Z</time>
      </trkpt>
      <trkpt lat="44.77391" lon="5.84462">
        <ele>2389.403</ele>
        <time>2014-07-18T08:39:07Z</time>
      </trkpt>
      <trkpt lat="44.77387" lon="5.84466">
        <ele>2391.918</ele>
        <time>2014-07-18T08:39:23Z</time>
      </trkpt>
      <trkpt lat="44.77381" lon="5.84464">
        <ele>2394.373</ele>
        <time>2014-07-18T08:39:55Z</time>
      </trkpt>
      <trkpt lat="44.77377" lon="5.84468">
        <ele>2395.848</ele>
        <time>2014-07-18T08:40:09Z</time>
      </trkpt>
      <trkpt lat="44.7738" lon="5.8445">
        <ele>2398.199</ele>
        <time>2014-07-18T08:40:23Z</time>
      </trkpt>
      <trkpt lat="44.77378" lon="5.84446">
        <ele>2398.205</ele>
        <time>2014-07-18T08:40:26Z</time>
      </trkpt>
      <trkpt lat="44.77389" lon="5.84427">
        <ele>2400.06</ele>
        <time>2014-07-18T08:40:38Z</time>
      </trkpt>
      <trkpt lat="44.77395" lon="5.84415">
        <ele>2402.443</ele>
        <time>2014-07-18T08:40:47Z</time>
      </trkpt>
      <trkpt lat="44.77404" lon="5.84398">
        <ele>2402.023</ele>
        <time>2014-07-18T08:41:00Z</time>
      </trkpt>
      <trkpt lat="44.77394" lon="5.84388">
        <ele>2402.155</ele>
        <time>2014-07-18T08:41:14Z</time>
      </trkpt>
      <trkpt lat="44.77415" lon="5.84391">
        <ele>2400.593</ele>
        <time>2014-07-18T08:41:33Z</time>
      </trkpt>
      <trkpt lat="44.77412" lon="5.84383">
        <ele>2404.913</ele>
        <time>2014-07-18T08:41:48Z</time>
      </trkpt>
      <trkpt lat="44.77424" lon="5.84371">
        <ele>2408.179</ele>
        <time>2014-07-18T08:42:00Z</time>
      </trkpt>
      <trkpt lat="44.7743" lon="5.84361">
        <ele>2410.269</ele>
        <time>2014-07-18T08:42:12Z</time>
      </trkpt>
      <trkpt lat="44.77421" lon="5.84361">
        <ele>2412.459</ele>
        <time>2014-07-18T08:42:25Z</time>
      </trkpt>
      <trkpt lat="44.77421" lon="5.84358">
        <ele>2414.851</ele>
        <time>2014-07-18T08:43:03Z</time>
      </trkpt>
      <trkpt lat="44.77427" lon="5.8435">
        <ele>2415.397</ele>
        <time>2014-07-18T08:43:44Z</time>
      </trkpt>
      <trkpt lat="44.77419" lon="5.84356">
        <ele>2416.345</ele>
        <time>2014-07-18T08:43:53Z</time>
      </trkpt>
      <trkpt lat="44.77418" lon="5.84347">
        <ele>2417.383</ele>
        <time>2014-07-18T08:44:04Z</time>
      </trkpt>
      <trkpt lat="44.7742" lon="5.84342">
        <ele>2418.453</ele>
        <time>2014-07-18T08:44:22Z</time>
      </trkpt>
      <trkpt lat="44.77412" lon="5.84343">
        <ele>2420.739</ele>
        <time>2014-07-18T08:44:45Z</time>
      </trkpt>
      <trkpt lat="44.77404" lon="5.84344">
        <ele>2423.296</ele>
        <time>2014-07-18T08:45:04Z</time>
      </trkpt>
      <trkpt lat="44.77406" lon="5.8434">
        <ele>2424.245</ele>
        <time>2014-07-18T08:45:25Z</time>
      </trkpt>
      <trkpt lat="44.77416" lon="5.8433">
        <ele>2426.882</ele>
        <time>2014-07-18T08:45:45Z</time>
      </trkpt>
      <trkpt lat="44.77408" lon="5.84335">
        <ele>2426.638</ele>
        <time>2014-07-18T08:46:01Z</time>
      </trkpt>
      <trkpt lat="44.77405" lon="5.84343">
        <ele>2429.104</ele>
        <time>2014-07-18T08:46:19Z</time>
      </trkpt>
      <trkpt lat="44.77396" lon="5.84364">
        <ele>2427.211</ele>
        <time>2014-07-18T08:47:50Z</time>
      </trkpt>
      <trkpt lat="44.77393" lon="5.84367">
        <ele>2428.365</ele>
        <time>2014-07-18T08:48:16Z</time>
      </trkpt>
      <trkpt lat="44.77389" lon="5.84366">
        <ele>2429.871</ele>
        <time>2014-07-18T08:48:33Z</time>
      </trkpt>
      <trkpt lat="44.77369" lon="5.84381">
        <ele>2431.909</ele>
        <time>2014-07-18T08:48:48Z</time>
      </trkpt>
      <trkpt lat="44.77359" lon="5.84391">
        <ele>2433.738</ele>
        <time>2014-07-18T08:49:05Z</time>
      </trkpt>
      <trkpt lat="44.77348" lon="5.84396">
        <ele>2436.504</ele>
        <time>2014-07-18T08:49:21Z</time>
      </trkpt>
      <trkpt lat="44.77345" lon="5.84399">
        <ele>2437.385</ele>
        <time>2014-07-18T08:49:26Z</time>
      </trkpt>
      <trkpt lat="44.77344" lon="5.84397">
        <ele>2438.828</ele>
        <time>2014-07-18T08:49:43Z</time>
      </trkpt>
      <trkpt lat="44.7734" lon="5.84389">
        <ele>2440.733</ele>
        <time>2014-07-18T08:50:00Z</time>
      </trkpt>
      <trkpt lat="44.77336" lon="5.84385">
        <ele>2446.266</ele>
        <time>2014-07-18T08:51:08Z</time>
      </trkpt>
      <trkpt lat="44.77336" lon="5.84371">
        <ele>2448.019</ele>
        <time>2014-07-18T08:51:24Z</time>
      </trkpt>
      <trkpt lat="44.77339" lon="5.84359">
        <ele>2450.519</ele>
        <time>2014-07-18T08:51:41Z</time>
      </trkpt>
      <trkpt lat="44.7734" lon="5.8435">
        <ele>2453.196</ele>
        <time>2014-07-18T08:51:59Z</time>
      </trkpt>
      <trkpt lat="44.77336" lon="5.84349">
        <ele>2456.074</ele>
        <time>2014-07-18T08:53:09Z</time>
      </trkpt>
      <trkpt lat="44.77337" lon="5.84342">
        <ele>2458.526</ele>
        <time>2014-07-18T08:53:25Z</time>
      </trkpt>
      <trkpt lat="44.77339" lon="5.8434">
        <ele>2459.462</ele>
        <time>2014-07-18T08:53:31Z</time>
      </trkpt>
      <trkpt lat="44.77338" lon="5.84335">
        <ele>2498.997</ele>
        <time>2014-07-18T09:22:15Z</time>
      </trkpt>
      <trkpt lat="44.77338" lon="5.84326">
        <ele>2501.582</ele>
        <time>2014-07-18T09:22:35Z</time>
      </trkpt>
      <trkpt lat="44.77343" lon="5.84321">
        <ele>2504.368</ele>
        <time>2014-07-18T09:22:55Z</time>
      </trkpt>
      <trkpt lat="44.77344" lon="5.84311">
        <ele>2505.846</ele>
        <time>2014-07-18T09:23:15Z</time>
      </trkpt>
      <trkpt lat="44.77347" lon="5.84305">
        <ele>2508.426</ele>
        <time>2014-07-18T09:23:34Z</time>
      </trkpt>
      <trkpt lat="44.77347" lon="5.84293">
        <ele>2511.226</ele>
        <time>2014-07-18T09:23:58Z</time>
      </trkpt>
      <trkpt lat="44.77349" lon="5.84287">
        <ele>2513.494</ele>
        <time>2014-07-18T09:24:15Z</time>
      </trkpt>
      <trkpt lat="44.7735" lon="5.8428">
        <ele>2515.656</ele>
        <time>2014-07-18T09:24:32Z</time>
      </trkpt>
      <trkpt lat="44.77352" lon="5.84275">
        <ele>2517.701</ele>
        <time>2014-07-18T09:24:50Z</time>
      </trkpt>
      <trkpt lat="44.77349" lon="5.84269">
        <ele>2519.018</ele>
        <time>2014-07-18T09:25:04Z</time>
      </trkpt>
      <trkpt lat="44.77352" lon="5.84263">
        <ele>2521.677</ele>
        <time>2014-07-18T09:25:23Z</time>
      </trkpt>
      <trkpt lat="44.77351" lon="5.84255">
        <ele>2523.736</ele>
        <time>2014-07-18T09:25:40Z</time>
      </trkpt>
      <trkpt lat="44.77352" lon="5.84244">
        <ele>2526.052</ele>
        <time>2014-07-18T09:25:58Z</time>
      </trkpt>
      <trkpt lat="44.77351" lon="5.84236">
        <ele>2528.495</ele>
        <time>2014-07-18T09:26:18Z</time>
      </trkpt>
      <trkpt lat="44.77355" lon="5.84235">
        <ele>2530.012</ele>
        <time>2014-07-18T09:26:34Z</time>
      </trkpt>
      <trkpt lat="44.77357" lon="5.84235">
        <ele>2532.419</ele>
        <time>2014-07-18T09:26:50Z</time>
      </trkpt>
      <trkpt lat="44.77359" lon="5.84231">
        <ele>2534.442</ele>
        <time>2014-07-18T09:27:10Z</time>
      </trkpt>
      <trkpt lat="44.77363" lon="5.84229">
        <ele>2536.196</ele>
        <time>2014-07-18T09:27:29Z</time>
      </trkpt>
      <trkpt lat="44.77366" lon="5.84225">
        <ele>2538.204</ele>
        <time>2014-07-18T09:27:47Z</time>
      </trkpt>
      <trkpt lat="44.77365" lon="5.84218">
        <ele>2539.744</ele>
        <time>2014-07-18T09:28:11Z</time>
      </trkpt>
      <trkpt lat="44.77362" lon="5.84207">
        <ele>2542.656</ele>
        <time>2014-07-18T09:28:29Z</time>
      </trkpt>
      <trkpt lat="44.77364" lon="5.84197">
        <ele>2545.967</ele>
        <time>2014-07-18T09:28:45Z</time>
      </trkpt>
      <trkpt lat="44.77369" lon="5.84195">
        <ele>2549.2</ele>
        <time>2014-07-18T09:29:03Z</time>
      </trkpt>
      <trkpt lat="44.77375" lon="5.84194">
        <ele>2551.283</ele>
        <time>2014-07-18T09:29:27Z</time>
      </trkpt>
      <trkpt lat="44.77382" lon="5.84192">
        <ele>2554.323</ele>
        <time>2014-07-18T09:29:47Z</time>
      </trkpt>
      <trkpt lat="44.77382" lon="5.84186">
        <ele>2558.146</ele>
        <time>2014-07-18T09:30:24Z</time>
      </trkpt>
      <trkpt lat="44.77379" lon="5.8418">
        <ele>2560.99</ele>
        <time>2014-07-18T09:30:44Z</time>
      </trkpt>
      <trkpt lat="44.77378" lon="5.84171">
        <ele>2564.185</ele>
        <time>2014-07-18T09:31:01Z</time>
      </trkpt>
      <trkpt lat="44.77379" lon="5.84166">
        <ele>2566.741</ele>
        <time>2014-07-18T09:31:37Z</time>
      </trkpt>
      <trkpt lat="44.77376" lon="5.8415">
        <ele>2570.042</ele>
        <time>2014-07-18T09:31:56Z</time>
      </trkpt>
      <trkpt lat="44.77372" lon="5.84132">
        <ele>2573.965</ele>
        <time>2014-07-18T09:32:18Z</time>
      </trkpt>
      <trkpt lat="44.77368" lon="5.84122">
        <ele>2576.761</ele>
        <time>2014-07-18T09:32:35Z</time>
      </trkpt>
      <trkpt lat="44.77363" lon="5.84116">
        <ele>2579.155</ele>
        <time>2014-07-18T09:32:55Z</time>
      </trkpt>
      <trkpt lat="44.77362" lon="5.84107">
        <ele>2582.626</ele>
        <time>2014-07-18T09:33:11Z</time>
      </trkpt>
      <trkpt lat="44.77357" lon="5.841">
        <ele>2584.438</ele>
        <time>2014-07-18T09:33:30Z</time>
      </trkpt>
      <trkpt lat="44.77355" lon="5.84097">
        <ele>2584.993</ele>
        <time>2014-07-18T09:34:37Z</time>
      </trkpt>
      <trkpt lat="44.77349" lon="5.84087">
        <ele>2587.013</ele>
        <time>2014-07-18T09:35:11Z</time>
      </trkpt>
      <trkpt lat="44.77345" lon="5.84081">
        <ele>2587.854</ele>
        <time>2014-07-18T09:35:27Z</time>
      </trkpt>
      <trkpt lat="44.77339" lon="5.84067">
        <ele>2587.771</ele>
        <time>2014-07-18T09:35:44Z</time>
      </trkpt>
      <trkpt lat="44.77332" lon="5.84061">
        <ele>2587.782</ele>
        <time>2014-07-18T09:35:57Z</time>
      </trkpt>
      <trkpt lat="44.77328" lon="5.84059">
        <ele>2588.2</ele>
        <time>2014-07-18T09:36:16Z</time>
      </trkpt>
      <trkpt lat="44.77324" lon="5.84054">
        <ele>2590.573</ele>
        <time>2014-07-18T09:37:45Z</time>
      </trkpt>
      <trkpt lat="44.77321" lon="5.84051">
        <ele>2591.648</ele>
        <time>2014-07-18T09:38:05Z</time>
      </trkpt>
      <trkpt lat="44.77311" lon="5.84047">
        <ele>2593.016</ele>
        <time>2014-07-18T09:38:37Z</time>
      </trkpt>
      <trkpt lat="44.77304" lon="5.84045">
        <ele>2594.074</ele>
        <time>2014-07-18T09:39:05Z</time>
      </trkpt>
      <trkpt lat="44.77302" lon="5.84043">
        <ele>2597.231</ele>
        <time>2014-07-18T09:39:24Z</time>
      </trkpt>
      <trkpt lat="44.773" lon="5.84042">
        <ele>2597.766</ele>
        <time>2014-07-18T09:39:41Z</time>
      </trkpt>
      <trkpt lat="44.77303" lon="5.8404">
        <ele>2600.35</ele>
        <time>2014-07-18T09:39:58Z</time>
      </trkpt>
      <trkpt lat="44.77306" lon="5.84042">
        <ele>2607.341</ele>
        <time>2014-07-18T09:40:59Z</time>
      </trkpt>
      <trkpt lat="44.77305" lon="5.84037">
        <ele>2609.06</ele>
        <time>2014-07-18T09:41:18Z</time>
      </trkpt>
      <trkpt lat="44.77306" lon="5.84034">
        <ele>2610.359</ele>
        <time>2014-07-18T09:42:00Z</time>
      </trkpt>
      <trkpt lat="44.77309" lon="5.84036">
        <ele>2613.265</ele>
        <time>2014-07-18T09:42:23Z</time>
      </trkpt>
      <trkpt lat="44.77316" lon="5.84039">
        <ele>2616.265</ele>
        <time>2014-07-18T09:42:39Z</time>
      </trkpt>
      <trkpt lat="44.77321" lon="5.84038">
        <ele>2619.11</ele>
        <time>2014-07-18T09:43:07Z</time>
      </trkpt>
      <trkpt lat="44.77323" lon="5.84034">
        <ele>2622.157</ele>
        <time>2014-07-18T09:43:20Z</time>
      </trkpt>
      <trkpt lat="44.77324" lon="5.84027">
        <ele>2625.104</ele>
        <time>2014-07-18T09:45:07Z</time>
      </trkpt>
      <trkpt lat="44.77325" lon="5.84025">
        <ele>2626.758</ele>
        <time>2014-07-18T09:45:14Z</time>
      </trkpt>
      <trkpt lat="44.77326" lon="5.84014">
        <ele>2629.478</ele>
        <time>2014-07-18T09:45:37Z</time>
      </trkpt>
      <trkpt lat="44.77329" lon="5.84014">
        <ele>2630.407</ele>
        <time>2014-07-18T09:46:14Z</time>
      </trkpt>
      <trkpt lat="44.77332" lon="5.84011">
        <ele>2633.296</ele>
        <time>2014-07-18T09:46:27Z</time>
      </trkpt>
      <trkpt lat="44.77332" lon="5.84008">
        <ele>2637.83</ele>
        <time>2014-07-18T09:46:58Z</time>
      </trkpt>
      <trkpt lat="44.77335" lon="5.84005">
        <ele>2640.312</ele>
        <time>2014-07-18T09:47:13Z</time>
      </trkpt>
      <trkpt lat="44.77336" lon="5.83999">
        <ele>2646.079</ele>
        <time>2014-07-18T09:49:30Z</time>
      </trkpt>
      <trkpt lat="44.77338" lon="5.83996">
        <ele>2648.86</ele>
        <time>2014-07-18T09:50:00Z</time>
      </trkpt>
      <trkpt lat="44.77336" lon="5.8399">
        <ele>2649.354</ele>
        <time>2014-07-18T09:50:26Z</time>
      </trkpt>
      <trkpt lat="44.77332" lon="5.8398">
        <ele>2650.661</ele>
        <time>2014-07-18T09:51:04Z</time>
      </trkpt>
      <trkpt lat="44.77335" lon="5.83974">
        <ele>2648.976</ele>
        <time>2014-07-18T09:51:35Z</time>
      </trkpt>
      <trkpt lat="44.77341" lon="5.83964">
        <ele>2650.55</ele>
        <time>2014-07-18T09:52:38Z</time>
      </trkpt>
      <trkpt lat="44.7734" lon="5.83958">
        <ele>2651.106</ele>
        <time>2014-07-18T09:53:07Z</time>
      </trkpt>
      <trkpt lat="44.77343" lon="5.83946">
        <ele>2652.878</ele>
        <time>2014-07-18T09:53:32Z</time>
      </trkpt>
      <trkpt lat="44.77345" lon="5.83937">
        <ele>2653.438</ele>
        <time>2014-07-18T09:53:50Z</time>
      </trkpt>
      <trkpt lat="44.77343" lon="5.83928">
        <ele>2653.186</ele>
        <time>2014-07-18T09:54:11Z</time>
      </trkpt>
      <trkpt lat="44.77345" lon="5.83923">
        <ele>2655.81</ele>
        <time>2014-07-18T09:54:24Z</time>
      </trkpt>
      <trkpt lat="44.77345" lon="5.83914">
        <ele>2658.31</ele>
        <time>2014-07-18T09:54:37Z</time>
      </trkpt>
      <trkpt lat="44.77346" lon="5.83902">
        <ele>2661.186</ele>
        <time>2014-07-18T09:54:56Z</time>
      </trkpt>
      <trkpt lat="44.77343" lon="5.83897">
        <ele>2661.304</ele>
        <time>2014-07-18T09:55:15Z</time>
      </trkpt>
      <trkpt lat="44.7734" lon="5.83896">
        <ele>2662.166</ele>
        <time>2014-07-18T09:55:38Z</time>
      </trkpt>
      <trkpt lat="44.77334" lon="5.83893">
        <ele>2663.578</ele>
        <time>2014-07-18T09:55:56Z</time>
      </trkpt>
      <trkpt lat="44.77329" lon="5.83894">
        <ele>2661.285</ele>
        <time>2014-07-18T09:56:09Z</time>
      </trkpt>
      <trkpt lat="44.77326" lon="5.83889">
        <ele>2659.024</ele>
        <time>2014-07-18T09:56:25Z</time>
      </trkpt>
      <trkpt lat="44.77326" lon="5.83884">
        <ele>2657.19</ele>
        <time>2014-07-18T09:56:44Z</time>
      </trkpt>
      <trkpt lat="44.77324" lon="5.83881">
        <ele>2655.559</ele>
        <time>2014-07-18T09:57:01Z</time>
      </trkpt>
      <trkpt lat="44.77322" lon="5.83877">
        <ele>2654.393</ele>
        <time>2014-07-18T09:57:48Z</time>
      </trkpt>
      <trkpt lat="44.77321" lon="5.83863">
        <ele>2655.893</ele>
        <time>2014-07-18T09:58:03Z</time>
      </trkpt>
      <trkpt lat="44.7732" lon="5.83852">
        <ele>2657.354</ele>
        <time>2014-07-18T09:58:19Z</time>
      </trkpt>
      <trkpt lat="44.7732" lon="5.83839">
        <ele>2657.868</ele>
        <time>2014-07-18T09:58:37Z</time>
      </trkpt>
      <trkpt lat="44.77322" lon="5.83829">
        <ele>2660.542</ele>
        <time>2014-07-18T09:58:55Z</time>
      </trkpt>
      <trkpt lat="44.77322" lon="5.83826">
        <ele>2660.708</ele>
        <time>2014-07-18T10:00:00Z</time>
      </trkpt>
      <trkpt lat="44.77328" lon="5.83802">
        <ele>2663.006</ele>
        <time>2014-07-18T10:00:22Z</time>
      </trkpt>
      <trkpt lat="44.7733" lon="5.83794">
        <ele>2663.612</ele>
        <time>2014-07-18T10:01:15Z</time>
      </trkpt>
      <trkpt lat="44.7733" lon="5.83784">
        <ele>2663.199</ele>
        <time>2014-07-18T10:01:33Z</time>
      </trkpt>
      <trkpt lat="44.77329" lon="5.83781">
        <ele>2662.029</ele>
        <time>2014-07-18T10:01:49Z</time>
      </trkpt>
      <trkpt lat="44.77325" lon="5.83775">
        <ele>2659.237</ele>
        <time>2014-07-18T10:02:11Z</time>
      </trkpt>
      <trkpt lat="44.77327" lon="5.83775">
        <ele>2659.226</ele>
        <time>2014-07-18T10:02:23Z</time>
      </trkpt>
      <trkpt lat="44.77328" lon="5.83769">
        <ele>2659.213</ele>
        <time>2014-07-18T10:02:36Z</time>
      </trkpt>
      <trkpt lat="44.77333" lon="5.83763">
        <ele>2661.885</ele>
        <time>2014-07-18T10:03:12Z</time>
      </trkpt>
      <trkpt lat="44.77337" lon="5.83761">
        <ele>2664.312</ele>
        <time>2014-07-18T10:03:58Z</time>
      </trkpt>
      <trkpt lat="44.7734" lon="5.83755">
        <ele>2667.207</ele>
        <time>2014-07-18T10:04:20Z</time>
      </trkpt>
      <trkpt lat="44.77343" lon="5.83756">
        <ele>2668.929</ele>
        <time>2014-07-18T10:04:33Z</time>
      </trkpt>
      <trkpt lat="44.77346" lon="5.83754">
        <ele>2671.405</ele>
        <time>2014-07-18T10:04:44Z</time>
      </trkpt>
      <trkpt lat="44.77347" lon="5.83749">
        <ele>2672.938</ele>
        <time>2014-07-18T10:05:01Z</time>
      </trkpt>
      <trkpt lat="44.7735" lon="5.83746">
        <ele>2674.874</ele>
        <time>2014-07-18T10:06:02Z</time>
      </trkpt>
      <trkpt lat="44.77354" lon="5.83748">
        <ele>2677.897</ele>
        <time>2014-07-18T10:06:17Z</time>
      </trkpt>
      <trkpt lat="44.77356" lon="5.8375">
        <ele>2679.249</ele>
        <time>2014-07-18T10:06:32Z</time>
      </trkpt>
      <trkpt lat="44.7736" lon="5.8375">
        <ele>2679.775</ele>
        <time>2014-07-18T10:06:46Z</time>
      </trkpt>
      <trkpt lat="44.77364" lon="5.83746">
        <ele>2680.373</ele>
        <time>2014-07-18T10:07:05Z</time>
      </trkpt>
      <trkpt lat="44.77367" lon="5.83747">
        <ele>2681.948</ele>
        <time>2014-07-18T10:07:22Z</time>
      </trkpt>
      <trkpt lat="44.7737" lon="5.8375">
        <ele>2683.813</ele>
        <time>2014-07-18T10:07:41Z</time>
      </trkpt>
      <trkpt lat="44.77371" lon="5.83759">
        <ele>2686.472</ele>
        <time>2014-07-18T10:07:56Z</time>
      </trkpt>
      <trkpt lat="44.77373" lon="5.83765">
        <ele>2688.937</ele>
        <time>2014-07-18T10:08:08Z</time>
      </trkpt>
      <trkpt lat="44.77378" lon="5.83766">
        <ele>2690.74</ele>
        <time>2014-07-18T10:08:24Z</time>
      </trkpt>
      <trkpt lat="44.7738" lon="5.83767">
        <ele>2693.5</ele>
        <time>2014-07-18T10:08:41Z</time>
      </trkpt>
      <trkpt lat="44.77381" lon="5.83773">
        <ele>2694.961</ele>
        <time>2014-07-18T10:09:15Z</time>
      </trkpt>
      <trkpt lat="44.77379" lon="5.83777">
        <ele>2698.813</ele>
        <time>2014-07-18T10:09:38Z</time>
      </trkpt>
      <trkpt lat="44.77378" lon="5.83786">
        <ele>2702.381</ele>
        <time>2014-07-18T10:10:29Z</time>
      </trkpt>
      <trkpt lat="44.77379" lon="5.83796">
        <ele>2704.994</ele>
        <time>2014-07-18T10:10:45Z</time>
      </trkpt>
      <trkpt lat="44.77374" lon="5.83805">
        <ele>2707.885</ele>
        <time>2014-07-18T10:11:03Z</time>
      </trkpt>
      <trkpt lat="44.77377" lon="5.83808">
        <ele>2710.605</ele>
        <time>2014-07-18T10:12:14Z</time>
      </trkpt>
      <trkpt lat="44.77376" lon="5.83813">
        <ele>2713.1</ele>
        <time>2014-07-18T10:12:27Z</time>
      </trkpt>
      <trkpt lat="44.77379" lon="5.83816">
        <ele>2714.809</ele>
        <time>2014-07-18T10:12:48Z</time>
      </trkpt>
      <trkpt lat="44.7738" lon="5.83822">
        <ele>2716.269</ele>
        <time>2014-07-18T10:13:34Z</time>
      </trkpt>
      <trkpt lat="44.77384" lon="5.8383">
        <ele>2719.391</ele>
        <time>2014-07-18T10:13:47Z</time>
      </trkpt>
      <trkpt lat="44.77387" lon="5.83832">
        <ele>2720.881</ele>
        <time>2014-07-18T10:13:59Z</time>
      </trkpt>
      <trkpt lat="44.7739" lon="5.83838">
        <ele>2723.274</ele>
        <time>2014-07-18T10:14:15Z</time>
      </trkpt>
      <trkpt lat="44.77395" lon="5.83848">
        <ele>2724.891</ele>
        <time>2014-07-18T10:14:36Z</time>
      </trkpt>
      <trkpt lat="44.77394" lon="5.83857">
        <ele>2728.34</ele>
        <time>2014-07-18T10:14:54Z</time>
      </trkpt>
      <trkpt lat="44.77397" lon="5.83871">
        <ele>2732.884</ele>
        <time>2014-07-18T10:16:26Z</time>
      </trkpt>
      <trkpt lat="44.77398" lon="5.83879">
        <ele>2735.037</ele>
        <time>2014-07-18T10:16:38Z</time>
      </trkpt>
      <trkpt lat="44.77398" lon="5.8389">
        <ele>2736.877</ele>
        <time>2014-07-18T10:16:58Z</time>
      </trkpt>
      <trkpt lat="44.77402" lon="5.83894">
        <ele>2739.166</ele>
        <time>2014-07-18T10:18:01Z</time>
      </trkpt>
      <trkpt lat="44.77407" lon="5.83891">
        <ele>2741.624</ele>
        <time>2014-07-18T10:18:17Z</time>
      </trkpt>
      <trkpt lat="44.77412" lon="5.83881">
        <ele>2744.162</ele>
        <time>2014-07-18T10:18:33Z</time>
      </trkpt>
      <trkpt lat="44.77413" lon="5.83891">
        <ele>2747.046</ele>
        <time>2014-07-18T10:19:06Z</time>
      </trkpt>
      <trkpt lat="44.77416" lon="5.83895">
        <ele>2748.746</ele>
        <time>2014-07-18T10:19:42Z</time>
      </trkpt>
      <trkpt lat="44.77419" lon="5.83894">
        <ele>2749.629</ele>
        <time>2014-07-18T10:19:57Z</time>
      </trkpt>
      <trkpt lat="44.77423" lon="5.83893">
        <ele>2750.702</ele>
        <time>2014-07-18T10:20:15Z</time>
      </trkpt>
      <trkpt lat="44.77424" lon="5.83895">
        <ele>2752.833</ele>
        <time>2014-07-18T10:20:31Z</time>
      </trkpt>
      <trkpt lat="44.77427" lon="5.83892">
        <ele>2753.588</ele>
        <time>2014-07-18T10:20:48Z</time>
      </trkpt>
      <trkpt lat="44.77434" lon="5.83884">
        <ele>2756.961</ele>
        <time>2014-07-18T10:21:07Z</time>
      </trkpt>
      <trkpt lat="44.77439" lon="5.83896">
        <ele>2759.113</ele>
        <time>2014-07-18T10:21:22Z</time>
      </trkpt>
      <trkpt lat="44.77442" lon="5.83909">
        <ele>2761.19</ele>
        <time>2014-07-18T10:21:37Z</time>
      </trkpt>
      <trkpt lat="44.77448" lon="5.83916">
        <ele>2764.671</ele>
        <time>2014-07-18T10:22:12Z</time>
      </trkpt>
      <trkpt lat="44.77451" lon="5.83919">
        <ele>2766.439</ele>
        <time>2014-07-18T10:23:01Z</time>
      </trkpt>
      <trkpt lat="44.77457" lon="5.83917">
        <ele>2768.602</ele>
        <time>2014-07-18T10:23:15Z</time>
      </trkpt>
      <trkpt lat="44.77464" lon="5.83922">
        <ele>2770.914</ele>
        <time>2014-07-18T10:24:05Z</time>
      </trkpt>
      <trkpt lat="44.77466" lon="5.83923">
        <ele>2771.832</ele>
        <time>2014-07-18T10:24:19Z</time>
      </trkpt>
      <trkpt lat="44.77474" lon="5.83926">
        <ele>2773.914</ele>
        <time>2014-07-18T10:24:34Z</time>
      </trkpt>
      <trkpt lat="44.77482" lon="5.83929">
        <ele>2775.787</ele>
        <time>2014-07-18T10:24:52Z</time>
      </trkpt>
      <trkpt lat="44.77489" lon="5.83936">
        <ele>2777.868</ele>
        <time>2014-07-18T10:25:04Z</time>
      </trkpt>
      <trkpt lat="44.77494" lon="5.8394">
        <ele>2779.513</ele>
        <time>2014-07-18T10:25:16Z</time>
      </trkpt>
      <trkpt lat="44.77503" lon="5.83943">
        <ele>2781.007</ele>
        <time>2014-07-18T10:25:29Z</time>
      </trkpt>
      <trkpt lat="44.77514" lon="5.83946">
        <ele>2783.259</ele>
        <time>2014-07-18T10:25:44Z</time>
      </trkpt>
      <trkpt lat="44.77522" lon="5.8394">
        <ele>2785.63</ele>
        <time>2014-07-18T10:25:57Z</time>
      </trkpt>
      <trkpt lat="44.77524" lon="5.83938">
        <ele>2786.324</ele>
        <time>2014-07-18T10:26:02Z</time>
      </trkpt>
      <trkpt lat="44.77528" lon="5.83936">
        <ele>2786.821</ele>
        <time>2014-07-18T10:26:18Z</time>
      </trkpt>
    </trkseg>
  </trk>
</gpx>